CKK219 ZSPD-KLAX
Flight info
| Callsign | CKK219 |
|---|---|
| Flight time | N/A |
| Altitude | 33000 |
| Route | LAM81D LAMEN/N0492F320 A593 SADLI Y590 BEDAR Y591 FUE Y23 KASTE Y81 TASOT Y57 POROT Y809 AVBET OTR11 LEPKI DCT 38N160E 40N170E 41N180E 43N170W 44N160W 45N150W 44N140W 39N130W DCT ALCOA DCT PIRAT DCT BURGL IRNMN2 |
| Aircraft | B77L/H-SDE1E2E3FGHIJ2J3J4J5M1RWXY/LB1D1 |
Departure
| Time | N/A |
|---|---|
| Airport | Shanghai Pudong International Airport (ZSPD) |
Arrival
| Time | 2026-05-04 22:19 |
|---|---|
| Airport | Los Angeles International Airport (KLAX) |
| Time | Latitude | Longitude | Altitude | Speed | Heading |
|---|---|---|---|---|---|
| 2026-05-04 13:59 | 37.66147 | 155.53896 | 32682 ft | 532 kts | 84° |
| 2026-05-04 13:59 | 37.66587 | 155.58538 | 32685 ft | 533 kts | 84° |
| 2026-05-04 14:00 | 37.67898 | 155.72467 | 32686 ft | 533 kts | 84° |
| 2026-05-04 14:00 | 37.69192 | 155.86405 | 32696 ft | 533 kts | 84° |
| 2026-05-04 14:01 | 37.70048 | 155.95701 | 32692 ft | 533 kts | 84° |
| 2026-05-04 14:02 | 37.71318 | 156.09645 | 32693 ft | 533 kts | 84° |
| 2026-05-04 14:02 | 37.72154 | 156.18959 | 32693 ft | 533 kts | 84° |
| 2026-05-04 14:03 | 37.72981 | 156.28265 | 32691 ft | 533 kts | 84° |
| 2026-05-04 14:03 | 37.73800 | 156.37520 | 32695 ft | 533 kts | 84° |
| 2026-05-04 14:04 | 37.75018 | 156.51487 | 32695 ft | 533 kts | 84° |
| 2026-05-04 14:04 | 37.75823 | 156.60807 | 32697 ft | 533 kts | 84° |
| 2026-05-04 14:05 | 37.77013 | 156.74777 | 32706 ft | 533 kts | 84° |
| 2026-05-04 14:06 | 37.77799 | 156.84104 | 32707 ft | 533 kts | 84° |
| 2026-05-04 14:06 | 37.78580 | 156.93436 | 32706 ft | 534 kts | 84° |
| 2026-05-04 14:07 | 37.79350 | 157.02721 | 32699 ft | 534 kts | 84° |
| 2026-05-04 14:07 | 37.80114 | 157.12062 | 32701 ft | 534 kts | 84° |
| 2026-05-04 14:08 | 37.80873 | 157.21407 | 32695 ft | 535 kts | 84° |
| 2026-05-04 14:08 | 37.81618 | 157.30765 | 32701 ft | 535 kts | 84° |
| 2026-05-04 14:09 | 37.82732 | 157.44830 | 32703 ft | 536 kts | 84° |
| 2026-05-04 14:10 | 37.83833 | 157.58938 | 32707 ft | 538 kts | 84° |
| 2026-05-04 14:10 | 37.84561 | 157.68361 | 32706 ft | 538 kts | 84° |
| 2026-05-04 14:11 | 37.85281 | 157.77798 | 32710 ft | 539 kts | 84° |
| 2026-05-04 14:11 | 37.86344 | 157.91954 | 32704 ft | 539 kts | 85° |
| 2026-05-04 14:12 | 37.87045 | 158.01399 | 32707 ft | 539 kts | 85° |
| 2026-05-04 14:13 | 37.88081 | 158.15571 | 32715 ft | 539 kts | 85° |
| 2026-05-04 14:13 | 37.88757 | 158.24953 | 32716 ft | 539 kts | 85° |
| 2026-05-04 14:14 | 37.89432 | 158.34394 | 32727 ft | 538 kts | 85° |
| 2026-05-04 14:14 | 37.90427 | 158.48545 | 32725 ft | 538 kts | 85° |
| 2026-05-04 14:15 | 37.91726 | 158.67410 | 32778 ft | 537 kts | 85° |
| 2026-05-04 14:16 | 37.92676 | 158.81506 | 32915 ft | 535 kts | 85° |
| 2026-05-04 14:17 | 37.93613 | 158.95621 | 32923 ft | 536 kts | 85° |
| 2026-05-04 14:18 | 37.94532 | 159.09770 | 32914 ft | 538 kts | 85° |
| 2026-05-04 14:19 | 37.95735 | 159.28638 | 32915 ft | 539 kts | 85° |
| 2026-05-04 14:19 | 37.96326 | 159.38112 | 32914 ft | 539 kts | 85° |
| 2026-05-04 14:20 | 37.96907 | 159.47578 | 32916 ft | 539 kts | 85° |
| 2026-05-04 14:20 | 37.97387 | 159.55449 | 32915 ft | 539 kts | 85° |
| 2026-05-04 14:21 | 37.98239 | 159.69664 | 32917 ft | 539 kts | 85° |
| 2026-05-04 14:21 | 37.98798 | 159.79148 | 32919 ft | 540 kts | 85° |
| 2026-05-04 14:22 | 37.99351 | 159.88637 | 32915 ft | 540 kts | 85° |
| 2026-05-04 14:22 | 37.99997 | 159.98121 | 32910 ft | 540 kts | 81° |
| 2026-05-04 14:23 | 38.01676 | 160.07314 | 32921 ft | 537 kts | 70° |
| 2026-05-04 14:23 | 38.02824 | 160.11827 | 32911 ft | 537 kts | 70° |
| 2026-05-04 14:24 | 38.05135 | 160.20850 | 32920 ft | 538 kts | 70° |
| 2026-05-04 14:24 | 38.07404 | 160.29896 | 32915 ft | 538 kts | 71° |
| 2026-05-04 14:25 | 38.09638 | 160.38963 | 32915 ft | 538 kts | 71° |
| 2026-05-04 14:25 | 38.12962 | 160.52582 | 32921 ft | 538 kts | 71° |
| 2026-05-04 14:26 | 38.15173 | 160.61678 | 32921 ft | 539 kts | 71° |
| 2026-05-04 14:26 | 38.17382 | 160.70785 | 32917 ft | 539 kts | 71° |
| 2026-05-04 14:27 | 38.19581 | 160.79893 | 32911 ft | 539 kts | 71° |
| 2026-05-04 14:27 | 38.21775 | 160.89003 | 32919 ft | 539 kts | 71° |
| 2026-05-04 14:28 | 38.23959 | 160.98119 | 32919 ft | 539 kts | 70° |
| 2026-05-04 14:28 | 38.26122 | 161.07183 | 32919 ft | 539 kts | 70° |
| 2026-05-04 14:29 | 38.30459 | 161.25435 | 32916 ft | 539 kts | 70° |
| 2026-05-04 14:30 | 38.32615 | 161.34567 | 32913 ft | 539 kts | 71° |
| 2026-05-04 14:31 | 38.35836 | 161.48280 | 32920 ft | 538 kts | 71° |
| 2026-05-04 14:32 | 38.40100 | 161.66572 | 32914 ft | 538 kts | 71° |
| 2026-05-04 14:32 | 38.42225 | 161.75722 | 32913 ft | 538 kts | 71° |
| 2026-05-04 14:33 | 38.44326 | 161.84814 | 32920 ft | 537 kts | 71° |
| 2026-05-04 14:33 | 38.46429 | 161.93965 | 32922 ft | 537 kts | 71° |
| 2026-05-04 14:34 | 38.48530 | 162.03123 | 32926 ft | 538 kts | 71° |
| 2026-05-04 14:34 | 38.50625 | 162.12298 | 32928 ft | 538 kts | 71° |
| 2026-05-04 14:35 | 38.52714 | 162.21476 | 32926 ft | 538 kts | 71° |
| 2026-05-04 14:35 | 38.54796 | 162.30660 | 32927 ft | 539 kts | 71° |
| 2026-05-04 14:36 | 38.56868 | 162.39862 | 32926 ft | 539 kts | 71° |
| 2026-05-04 14:36 | 38.58934 | 162.49079 | 32930 ft | 540 kts | 71° |
| 2026-05-04 14:37 | 38.61003 | 162.58306 | 32925 ft | 540 kts | 71° |
| 2026-05-04 14:37 | 38.63053 | 162.67494 | 32924 ft | 541 kts | 71° |
| 2026-05-04 14:38 | 38.65105 | 162.76751 | 32926 ft | 541 kts | 71° |
| 2026-05-04 14:38 | 38.67153 | 162.86023 | 32925 ft | 541 kts | 71° |
| 2026-05-04 14:39 | 38.69194 | 162.95289 | 32926 ft | 541 kts | 71° |
| 2026-05-04 14:39 | 38.71228 | 163.04573 | 32927 ft | 541 kts | 71° |
| 2026-05-04 14:40 | 38.74264 | 163.18503 | 32923 ft | 542 kts | 71° |
| 2026-05-04 14:40 | 38.76285 | 163.27795 | 32924 ft | 541 kts | 71° |
| 2026-05-04 14:41 | 38.78290 | 163.37084 | 32927 ft | 541 kts | 71° |
| 2026-05-04 14:42 | 38.82283 | 163.55704 | 32925 ft | 542 kts | 71° |
| 2026-05-04 14:42 | 38.84271 | 163.65030 | 32924 ft | 542 kts | 71° |
| 2026-05-04 14:43 | 38.86240 | 163.74294 | 32926 ft | 542 kts | 71° |
| 2026-05-04 14:43 | 38.88216 | 163.83633 | 32925 ft | 542 kts | 71° |
| 2026-05-04 14:44 | 38.90179 | 163.92967 | 32923 ft | 542 kts | 71° |
| 2026-05-04 14:44 | 38.92134 | 164.02301 | 32926 ft | 542 kts | 71° |
| 2026-05-04 14:45 | 38.94083 | 164.11659 | 32925 ft | 542 kts | 71° |
| 2026-05-04 14:45 | 38.96029 | 164.21016 | 32926 ft | 542 kts | 71° |
| 2026-05-04 14:46 | 38.97970 | 164.30390 | 32923 ft | 543 kts | 71° |
| 2026-05-04 14:46 | 38.99903 | 164.39774 | 32929 ft | 543 kts | 71° |
| 2026-05-04 14:47 | 39.01829 | 164.49168 | 32923 ft | 543 kts | 71° |
| 2026-05-04 14:47 | 39.03746 | 164.58557 | 32924 ft | 543 kts | 71° |
| 2026-05-04 14:48 | 39.05656 | 164.67968 | 32930 ft | 544 kts | 71° |
| 2026-05-04 14:48 | 39.07551 | 164.77330 | 32924 ft | 544 kts | 71° |
| 2026-05-04 14:49 | 39.09449 | 164.86758 | 32922 ft | 544 kts | 71° |
| 2026-05-04 14:49 | 39.11340 | 164.96194 | 32926 ft | 544 kts | 71° |
| 2026-05-04 14:50 | 39.13222 | 165.05623 | 32925 ft | 543 kts | 71° |
| 2026-05-04 14:50 | 39.15096 | 165.15056 | 32924 ft | 543 kts | 71° |
| 2026-05-04 14:51 | 39.16960 | 165.24490 | 32925 ft | 543 kts | 71° |
| 2026-05-04 14:51 | 39.18819 | 165.33930 | 32928 ft | 543 kts | 71° |
| 2026-05-04 14:52 | 39.20670 | 165.43373 | 32927 ft | 543 kts | 71° |
| 2026-05-04 14:52 | 39.22511 | 165.52824 | 32927 ft | 544 kts | 71° |
| 2026-05-04 14:53 | 39.24351 | 165.62288 | 32926 ft | 544 kts | 71° |
| 2026-05-04 14:53 | 39.26179 | 165.71760 | 32930 ft | 544 kts | 71° |
| 2026-05-04 14:54 | 39.28002 | 165.81249 | 32925 ft | 544 kts | 71° |
| 2026-05-04 14:54 | 39.29806 | 165.90686 | 32926 ft | 544 kts | 71° |
| 2026-05-04 14:55 | 39.31616 | 166.00179 | 32924 ft | 545 kts | 71° |
| 2026-05-04 14:55 | 39.33419 | 166.09691 | 32926 ft | 545 kts | 71° |
| 2026-05-04 14:56 | 39.35218 | 166.19225 | 32926 ft | 546 kts | 71° |
| 2026-05-04 14:56 | 39.37006 | 166.28754 | 32925 ft | 546 kts | 71° |
| 2026-05-04 14:57 | 39.38789 | 166.38297 | 32928 ft | 546 kts | 71° |
| 2026-05-04 14:57 | 39.40565 | 166.47851 | 32924 ft | 546 kts | 71° |
| 2026-05-04 14:58 | 39.42319 | 166.57332 | 32927 ft | 546 kts | 71° |
| 2026-05-04 14:58 | 39.44077 | 166.66879 | 32925 ft | 546 kts | 71° |
| 2026-05-04 14:59 | 39.45828 | 166.76449 | 32940 ft | 546 kts | 71° |
| 2026-05-04 15:00 | 39.48437 | 166.90788 | 32943 ft | 546 kts | 71° |
| 2026-05-04 15:00 | 39.50167 | 167.00353 | 32945 ft | 546 kts | 71° |
| 2026-05-04 15:01 | 39.52773 | 167.14713 | 32933 ft | 546 kts | 71° |
| 2026-05-04 15:01 | 39.54481 | 167.24309 | 32945 ft | 547 kts | 72° |
| 2026-05-04 15:02 | 39.56172 | 167.33916 | 32943 ft | 546 kts | 72° |
| 2026-05-04 15:02 | 39.57857 | 167.43493 | 32937 ft | 544 kts | 72° |
| 2026-05-04 15:03 | 39.59538 | 167.53045 | 32940 ft | 543 kts | 72° |
| 2026-05-04 15:03 | 39.61209 | 167.62574 | 32942 ft | 541 kts | 72° |
| 2026-05-04 15:04 | 39.62859 | 167.72049 | 32946 ft | 542 kts | 72° |
| 2026-05-04 15:04 | 39.64512 | 167.81585 | 32944 ft | 542 kts | 72° |
| 2026-05-04 15:05 | 39.66156 | 167.91132 | 32944 ft | 543 kts | 72° |
| 2026-05-04 15:05 | 39.67798 | 168.00711 | 32948 ft | 544 kts | 72° |
| 2026-05-04 15:06 | 39.69435 | 168.10311 | 32945 ft | 545 kts | 72° |
| 2026-05-04 15:07 | 39.71883 | 168.24757 | 32947 ft | 546 kts | 72° |
| 2026-05-04 15:07 | 39.73504 | 168.34395 | 32944 ft | 547 kts | 72° |
| 2026-05-04 15:08 | 39.75118 | 168.44047 | 32945 ft | 546 kts | 72° |
| 2026-05-04 15:08 | 39.76723 | 168.53699 | 32944 ft | 546 kts | 72° |
| 2026-05-04 15:09 | 39.78319 | 168.63348 | 32945 ft | 546 kts | 72° |
| 2026-05-04 15:09 | 39.79637 | 168.71365 | 32946 ft | 545 kts | 72° |
| 2026-05-04 15:10 | 39.82008 | 168.85833 | 32947 ft | 545 kts | 72° |
| 2026-05-04 15:11 | 39.84355 | 169.00301 | 32945 ft | 545 kts | 72° |
| 2026-05-04 15:11 | 39.85911 | 169.09959 | 32944 ft | 546 kts | 72° |
| 2026-05-04 15:12 | 39.87462 | 169.19638 | 32943 ft | 546 kts | 72° |
| 2026-05-04 15:12 | 39.89003 | 169.29322 | 32942 ft | 547 kts | 72° |
| 2026-05-04 15:13 | 39.90541 | 169.39016 | 32944 ft | 547 kts | 71° |
| 2026-05-04 15:13 | 39.92071 | 169.48730 | 32944 ft | 548 kts | 72° |
| 2026-05-04 15:14 | 39.93596 | 169.58459 | 32942 ft | 548 kts | 71° |
| 2026-05-04 15:14 | 39.95103 | 169.68145 | 32946 ft | 549 kts | 71° |
| 2026-05-04 15:15 | 39.96616 | 169.77918 | 32944 ft | 550 kts | 71° |
| 2026-05-04 15:15 | 39.98122 | 169.87706 | 32944 ft | 551 kts | 71° |
| 2026-05-04 15:16 | 40.00368 | 170.02434 | 32947 ft | 552 kts | 72° |
| 2026-05-04 15:17 | 40.02505 | 170.17211 | 32955 ft | 553 kts | 72° |
| 2026-05-04 15:17 | 40.04592 | 170.31952 | 32954 ft | 553 kts | 72° |
| 2026-05-04 15:18 | 40.05986 | 170.41818 | 32953 ft | 553 kts | 72° |
| 2026-05-04 15:19 | 40.08069 | 170.56635 | 32959 ft | 553 kts | 72° |
| 2026-05-04 15:19 | 40.10132 | 170.71447 | 32964 ft | 553 kts | 72° |
| 2026-05-04 15:20 | 40.11497 | 170.81328 | 32963 ft | 553 kts | 72° |
| 2026-05-04 15:20 | 40.12856 | 170.91237 | 32964 ft | 554 kts | 72° |
| 2026-05-04 15:21 | 40.14206 | 171.01134 | 32961 ft | 554 kts | 72° |
| 2026-05-04 15:22 | 40.16218 | 171.16019 | 32963 ft | 554 kts | 72° |
| 2026-05-04 15:22 | 40.18208 | 171.30907 | 32959 ft | 553 kts | 72° |
| 2026-05-04 15:23 | 40.19521 | 171.40824 | 32961 ft | 552 kts | 72° |
| 2026-05-04 15:23 | 40.20819 | 171.50647 | 32965 ft | 551 kts | 72° |
| 2026-05-04 15:24 | 40.23392 | 171.70416 | 32967 ft | 551 kts | 73° |
| 2026-05-04 15:25 | 40.24671 | 171.80314 | 32963 ft | 551 kts | 73° |
| 2026-05-04 15:26 | 40.26571 | 171.95151 | 32961 ft | 551 kts | 73° |
| 2026-05-04 15:26 | 40.28454 | 172.10022 | 32962 ft | 551 kts | 73° |
| 2026-05-04 15:27 | 40.30305 | 172.24829 | 32960 ft | 552 kts | 73° |
| 2026-05-04 15:28 | 40.32152 | 172.39727 | 32965 ft | 552 kts | 73° |
| 2026-05-04 15:29 | 40.33984 | 172.54662 | 32967 ft | 554 kts | 73° |
| 2026-05-04 15:30 | 40.38182 | 172.89573 | 32960 ft | 555 kts | 73° |
| 2026-05-04 15:31 | 40.39957 | 173.04613 | 32966 ft | 557 kts | 73° |
| 2026-05-04 15:32 | 40.42885 | 173.29782 | 32966 ft | 560 kts | 74° |
| 2026-05-04 15:34 | 40.45762 | 173.55082 | 32965 ft | 560 kts | 74° |
| 2026-05-04 15:34 | 40.47457 | 173.70210 | 32963 ft | 560 kts | 75° |
| 2026-05-04 15:35 | 40.49143 | 173.85403 | 32964 ft | 560 kts | 75° |
| 2026-05-04 15:36 | 40.50803 | 174.00617 | 32964 ft | 559 kts | 75° |
| 2026-05-04 15:36 | 40.51899 | 174.10742 | 32962 ft | 560 kts | 75° |
| 2026-05-04 15:37 | 40.52981 | 174.20815 | 32997 ft | 560 kts | 75° |
| 2026-05-04 15:37 | 40.54059 | 174.30944 | 33020 ft | 560 kts | 75° |
| 2026-05-04 15:38 | 40.55131 | 174.41100 | 33029 ft | 561 kts | 75° |
| 2026-05-04 15:38 | 40.56198 | 174.51283 | 33032 ft | 563 kts | 75° |
| 2026-05-04 15:39 | 40.57256 | 174.61497 | 33033 ft | 564 kts | 75° |
| 2026-05-04 15:40 | 40.58833 | 174.76873 | 33027 ft | 566 kts | 75° |
| 2026-05-04 15:40 | 40.59875 | 174.87149 | 33028 ft | 567 kts | 75° |
| 2026-05-04 15:41 | 40.60911 | 174.97446 | 33028 ft | 568 kts | 75° |
| 2026-05-04 15:41 | 40.61936 | 175.07751 | 33025 ft | 568 kts | 75° |
| 2026-05-04 15:42 | 40.62955 | 175.18076 | 33029 ft | 568 kts | 75° |
| 2026-05-04 15:42 | 40.63958 | 175.28331 | 33027 ft | 569 kts | 74° |
| 2026-05-04 15:43 | 40.64956 | 175.38655 | 33027 ft | 569 kts | 74° |
| 2026-05-04 15:43 | 40.65946 | 175.48991 | 33030 ft | 568 kts | 75° |
| 2026-05-04 15:44 | 40.66929 | 175.59319 | 33028 ft | 568 kts | 75° |
| 2026-05-04 15:44 | 40.67901 | 175.69669 | 33029 ft | 569 kts | 75° |
| 2026-05-04 15:45 | 40.68866 | 175.80016 | 33029 ft | 569 kts | 75° |
| 2026-05-04 15:45 | 40.69822 | 175.90379 | 33030 ft | 569 kts | 75° |
| 2026-05-04 15:46 | 40.70766 | 176.00744 | 33027 ft | 569 kts | 75° |
| 2026-05-04 15:46 | 40.71705 | 176.11116 | 33023 ft | 570 kts | 75° |
| 2026-05-04 15:47 | 40.72629 | 176.21435 | 33025 ft | 571 kts | 75° |
| 2026-05-04 15:47 | 40.73549 | 176.31829 | 33030 ft | 571 kts | 75° |
| 2026-05-04 15:48 | 40.74459 | 176.42243 | 33028 ft | 571 kts | 75° |
| 2026-05-04 15:48 | 40.75812 | 176.57865 | 33026 ft | 572 kts | 75° |
| 2026-05-04 15:49 | 40.76702 | 176.68305 | 33032 ft | 572 kts | 75° |
| 2026-05-04 15:49 | 40.77581 | 176.78742 | 33032 ft | 573 kts | 74° |
| 2026-05-04 15:50 | 40.78455 | 176.89191 | 33029 ft | 573 kts | 74° |
| 2026-05-04 15:50 | 40.79319 | 176.99648 | 33028 ft | 573 kts | 74° |
| 2026-05-04 15:51 | 40.80166 | 177.10056 | 33027 ft | 574 kts | 74° |
| 2026-05-04 15:51 | 40.81010 | 177.20520 | 33030 ft | 574 kts | 74° |
| 2026-05-04 15:52 | 40.81844 | 177.30999 | 33027 ft | 574 kts | 74° |
| 2026-05-04 15:52 | 40.82674 | 177.41492 | 33029 ft | 574 kts | 74° |
| 2026-05-04 15:53 | 40.83492 | 177.51976 | 33026 ft | 574 kts | 74° |
| 2026-05-04 15:53 | 40.84299 | 177.62467 | 33027 ft | 574 kts | 74° |
| 2026-05-04 15:54 | 40.85101 | 177.72981 | 33014 ft | 575 kts | 75° |
| 2026-05-04 15:54 | 40.85890 | 177.83506 | 33006 ft | 576 kts | 75° |
| 2026-05-04 15:55 | 40.86670 | 177.94036 | 33011 ft | 576 kts | 75° |
| 2026-05-04 15:55 | 40.87437 | 178.04501 | 33009 ft | 575 kts | 74° |
| 2026-05-04 15:56 | 40.88079 | 178.13328 | 33008 ft | 576 kts | 74° |
| 2026-05-04 15:56 | 40.88958 | 178.25592 | 33011 ft | 578 kts | 75° |
| 2026-05-04 15:57 | 40.89581 | 178.34450 | 33012 ft | 578 kts | 75° |
| 2026-05-04 15:57 | 40.90316 | 178.44990 | 33009 ft | 579 kts | 75° |
| 2026-05-04 15:58 | 40.91045 | 178.55603 | 33011 ft | 580 kts | 75° |
| 2026-05-04 15:58 | 40.91768 | 178.66236 | 33008 ft | 580 kts | 75° |
| 2026-05-04 15:59 | 40.92479 | 178.76869 | 33006 ft | 581 kts | 75° |
| 2026-05-04 15:59 | 40.93181 | 178.87521 | 33012 ft | 582 kts | 75° |
| 2026-05-04 16:00 | 40.93877 | 178.98197 | 33009 ft | 583 kts | 75° |
| 2026-05-04 16:00 | 40.94566 | 179.08897 | 33010 ft | 584 kts | 75° |
| 2026-05-04 16:01 | 40.95241 | 179.19607 | 33011 ft | 585 kts | 75° |
| 2026-05-04 16:01 | 40.95907 | 179.30330 | 33011 ft | 585 kts | 75° |
| 2026-05-04 16:02 | 40.96566 | 179.41058 | 33015 ft | 585 kts | 75° |
| 2026-05-04 16:03 | 40.97530 | 179.57088 | 33020 ft | 585 kts | 75° |
| 2026-05-04 16:03 | 40.98161 | 179.67830 | 33020 ft | 586 kts | 76° |
| 2026-05-04 16:04 | 40.98787 | 179.78581 | 33017 ft | 586 kts | 75° |
| 2026-05-04 16:04 | 40.99730 | 179.94705 | 33019 ft | 583 kts | 73° |
| 2026-05-04 16:05 | 41.01167 | -179.94913 | 33014 ft | 564 kts | 62° |
| 2026-05-04 16:06 | 41.04854 | -179.80336 | 33060 ft | 557 kts | 58° |
| 2026-05-04 16:07 | 41.09763 | -179.60759 | 33068 ft | 561 kts | 59° |
| 2026-05-04 16:08 | 41.14578 | -179.41106 | 33066 ft | 563 kts | 59° |
| 2026-05-04 16:09 | 41.20598 | -179.16342 | 33064 ft | 564 kts | 60° |
| 2026-05-04 16:10 | 41.25374 | -178.96517 | 33063 ft | 563 kts | 60° |
| 2026-05-04 16:11 | 41.30112 | -178.76697 | 33065 ft | 562 kts | 60° |
| 2026-05-04 16:12 | 41.37154 | -178.46888 | 33067 ft | 564 kts | 61° |
| 2026-05-04 16:13 | 41.41822 | -178.26910 | 33060 ft | 566 kts | 61° |
| 2026-05-04 16:14 | 41.46462 | -178.06894 | 33065 ft | 569 kts | 62° |
| 2026-05-04 16:16 | 41.52255 | -177.81609 | 33065 ft | 570 kts | 62° |
| 2026-05-04 16:17 | 41.58005 | -177.56257 | 33062 ft | 570 kts | 63° |
| 2026-05-04 16:18 | 41.62531 | -177.36052 | 33054 ft | 568 kts | 63° |
| 2026-05-04 16:19 | 41.68136 | -177.10825 | 33086 ft | 565 kts | 64° |
| 2026-05-04 16:20 | 41.73665 | -176.85637 | 33087 ft | 563 kts | 65° |
| 2026-05-04 16:22 | 41.79112 | -176.60515 | 33082 ft | 559 kts | 66° |
| 2026-05-04 16:23 | 41.85506 | -176.30662 | 33093 ft | 555 kts | 68° |
| 2026-05-04 16:25 | 41.91800 | -176.00859 | 33094 ft | 553 kts | 68° |
| 2026-05-04 16:26 | 41.99037 | -175.66039 | 33094 ft | 553 kts | 68° |
| 2026-05-04 16:28 | 42.04139 | -175.41141 | 33091 ft | 551 kts | 69° |
| 2026-05-04 16:29 | 42.11115 | -175.06585 | 33082 ft | 542 kts | 70° |
| 2026-05-04 16:31 | 42.15964 | -174.82217 | 33082 ft | 535 kts | 71° |
| 2026-05-04 16:32 | 42.21647 | -174.53280 | 33084 ft | 532 kts | 72° |
| 2026-05-04 16:33 | 42.25386 | -174.34004 | 33083 ft | 530 kts | 72° |
| 2026-05-04 16:34 | 42.28163 | -174.19574 | 33083 ft | 530 kts | 72° |
| 2026-05-04 16:35 | 42.33663 | -173.90645 | 33095 ft | 530 kts | 73° |
| 2026-05-04 16:36 | 42.36386 | -173.76160 | 33093 ft | 530 kts | 73° |
| 2026-05-04 16:37 | 42.39094 | -173.61654 | 33093 ft | 530 kts | 73° |
| 2026-05-04 16:38 | 42.42661 | -173.42373 | 33092 ft | 529 kts | 73° |
| 2026-05-04 16:39 | 42.47080 | -173.18194 | 33091 ft | 529 kts | 74° |
| 2026-05-04 16:40 | 42.50584 | -172.98827 | 33091 ft | 529 kts | 75° |
| 2026-05-04 16:41 | 42.54904 | -172.74617 | 33093 ft | 528 kts | 75° |
| 2026-05-04 16:43 | 42.59167 | -172.50435 | 33090 ft | 528 kts | 76° |
| 2026-05-04 16:43 | 42.61708 | -172.35859 | 33082 ft | 529 kts | 76° |
| 2026-05-04 16:45 | 42.66461 | -172.08275 | 33083 ft | 530 kts | 76° |
| 2026-05-04 16:46 | 42.70610 | -171.83850 | 33083 ft | 530 kts | 76° |
| 2026-05-04 16:47 | 42.73888 | -171.64302 | 33084 ft | 529 kts | 77° |
| 2026-05-04 16:48 | 42.77111 | -171.44849 | 33084 ft | 528 kts | 77° |
| 2026-05-04 16:49 | 42.80315 | -171.25353 | 33085 ft | 528 kts | 77° |
| 2026-05-04 16:50 | 42.83472 | -171.05854 | 33085 ft | 527 kts | 78° |
| 2026-05-04 16:51 | 42.85820 | -170.91228 | 33081 ft | 527 kts | 78° |
| 2026-05-04 16:52 | 42.88922 | -170.71679 | 33084 ft | 528 kts | 78° |
| 2026-05-04 16:53 | 42.91233 | -170.56999 | 33081 ft | 528 kts | 78° |
| 2026-05-04 16:54 | 42.94273 | -170.37458 | 33084 ft | 528 kts | 79° |
| 2026-05-04 16:55 | 42.98785 | -170.08023 | 33085 ft | 527 kts | 79° |
| 2026-05-04 16:56 | 43.02414 | -169.83452 | 33072 ft | 527 kts | 80° |
| 2026-05-04 16:57 | 43.04514 | -169.68727 | 33075 ft | 525 kts | 80° |
| 2026-05-04 16:58 | 43.07279 | -169.49249 | 33074 ft | 523 kts | 80° |
| 2026-05-04 17:00 | 43.11377 | -169.19952 | 33077 ft | 522 kts | 80° |
| 2026-05-04 17:01 | 43.14723 | -168.95544 | 33073 ft | 523 kts | 80° |
| 2026-05-04 17:02 | 43.17368 | -168.75969 | 33085 ft | 521 kts | 80° |
| 2026-05-04 17:03 | 43.19324 | -168.61328 | 33082 ft | 520 kts | 81° |
| 2026-05-04 17:03 | 43.21254 | -168.46700 | 33084 ft | 519 kts | 81° |
| 2026-05-04 17:04 | 43.23795 | -168.27240 | 33082 ft | 518 kts | 81° |
| 2026-05-04 17:05 | 43.26295 | -168.07867 | 33084 ft | 517 kts | 81° |
| 2026-05-04 17:06 | 43.28144 | -167.93289 | 33086 ft | 516 kts | 81° |
| 2026-05-04 17:07 | 43.29780 | -167.80317 | 33081 ft | 515 kts | 81° |
| 2026-05-04 17:07 | 43.31187 | -167.69069 | 33083 ft | 514 kts | 81° |
| 2026-05-04 17:08 | 43.32981 | -167.54562 | 33082 ft | 513 kts | 81° |
| 2026-05-04 17:09 | 43.34167 | -167.44888 | 33083 ft | 513 kts | 81° |
| 2026-05-04 17:09 | 43.35332 | -167.35274 | 33081 ft | 514 kts | 81° |
| 2026-05-04 17:10 | 43.38245 | -167.11016 | 33074 ft | 515 kts | 81° |
| 2026-05-04 17:11 | 43.39398 | -167.01302 | 33074 ft | 515 kts | 81° |
| 2026-05-04 17:12 | 43.41112 | -166.86721 | 33073 ft | 514 kts | 82° |
| 2026-05-04 17:13 | 43.43921 | -166.62429 | 33076 ft | 514 kts | 82° |
| 2026-05-04 17:14 | 43.46117 | -166.43093 | 33035 ft | 513 kts | 82° |
| 2026-05-04 17:15 | 43.47751 | -166.28520 | 33001 ft | 513 kts | 82° |
| 2026-05-04 17:16 | 43.49894 | -166.09132 | 33000 ft | 511 kts | 82° |
| 2026-05-04 17:17 | 43.52002 | -165.89772 | 32987 ft | 510 kts | 83° |
| 2026-05-04 17:18 | 43.54069 | -165.70444 | 32987 ft | 509 kts | 83° |
| 2026-05-04 17:19 | 43.56097 | -165.51180 | 32994 ft | 510 kts | 83° |
| 2026-05-04 17:20 | 43.58100 | -165.31815 | 32996 ft | 510 kts | 83° |
| 2026-05-04 17:20 | 43.59585 | -165.17275 | 32983 ft | 510 kts | 83° |
| 2026-05-04 17:21 | 43.61534 | -164.97871 | 32982 ft | 510 kts | 83° |
| 2026-05-04 17:22 | 43.62495 | -164.88178 | 32989 ft | 509 kts | 83° |
| 2026-05-04 17:23 | 43.64386 | -164.68852 | 32982 ft | 507 kts | 83° |
| 2026-05-04 17:24 | 43.65783 | -164.54377 | 32979 ft | 507 kts | 83° |
| 2026-05-04 17:25 | 43.67609 | -164.35075 | 32950 ft | 506 kts | 84° |
| 2026-05-04 17:26 | 43.69401 | -164.15812 | 32956 ft | 506 kts | 84° |
| 2026-05-04 17:26 | 43.70732 | -164.01287 | 33913 ft | 508 kts | 84° |
| 2026-05-04 17:27 | 43.71603 | -163.91631 | 34683 ft | 506 kts | 84° |
| 2026-05-04 17:27 | 43.72473 | -163.81913 | 34907 ft | 512 kts | 84° |
| 2026-05-04 17:28 | 43.73338 | -163.72143 | 34945 ft | 511 kts | 84° |
| 2026-05-04 17:29 | 43.75872 | -163.43004 | 34953 ft | 508 kts | 84° |
| 2026-05-04 17:31 | 43.77930 | -163.18670 | 34943 ft | 511 kts | 84° |
| 2026-05-04 17:32 | 43.79945 | -162.94206 | 34942 ft | 512 kts | 84° |
| 2026-05-04 17:33 | 43.81521 | -162.74575 | 34942 ft | 514 kts | 85° |
| 2026-05-04 17:34 | 43.82940 | -162.56564 | 34942 ft | 514 kts | 85° |
| 2026-05-04 17:35 | 43.84826 | -162.31998 | 34941 ft | 514 kts | 85° |
| 2026-05-04 17:36 | 43.85567 | -162.22150 | 34943 ft | 514 kts | 85° |
| 2026-05-04 17:36 | 43.86300 | -162.12299 | 34934 ft | 514 kts | 85° |
| 2026-05-04 17:37 | 43.87024 | -162.02455 | 34936 ft | 514 kts | 85° |
| 2026-05-04 17:37 | 43.87739 | -161.92607 | 34934 ft | 514 kts | 86° |
| 2026-05-04 17:38 | 43.88448 | -161.82754 | 34938 ft | 514 kts | 86° |
| 2026-05-04 17:38 | 43.89145 | -161.72897 | 34934 ft | 514 kts | 86° |
| 2026-05-04 17:39 | 43.90178 | -161.58088 | 34936 ft | 514 kts | 86° |
| 2026-05-04 17:39 | 43.90856 | -161.48224 | 34934 ft | 514 kts | 86° |
| 2026-05-04 17:40 | 43.91521 | -161.38417 | 34930 ft | 514 kts | 86° |
| 2026-05-04 17:40 | 43.92183 | -161.28531 | 34894 ft | 515 kts | 86° |
| 2026-05-04 17:41 | 43.92837 | -161.18624 | 34799 ft | 516 kts | 86° |
| 2026-05-04 17:41 | 43.93483 | -161.08707 | 34801 ft | 516 kts | 86° |
| 2026-05-04 17:42 | 43.94120 | -160.98804 | 34800 ft | 515 kts | 86° |
| 2026-05-04 17:42 | 43.94747 | -160.88909 | 34807 ft | 515 kts | 86° |
| 2026-05-04 17:43 | 43.95367 | -160.79023 | 34805 ft | 514 kts | 86° |
| 2026-05-04 17:43 | 43.95977 | -160.69136 | 34798 ft | 515 kts | 86° |
| 2026-05-04 17:44 | 43.96579 | -160.59233 | 34804 ft | 515 kts | 86° |
| 2026-05-04 17:44 | 43.97172 | -160.49324 | 34810 ft | 515 kts | 86° |
| 2026-05-04 17:45 | 43.97757 | -160.39409 | 34803 ft | 516 kts | 86° |
| 2026-05-04 17:45 | 43.98335 | -160.29475 | 34807 ft | 516 kts | 86° |
| 2026-05-04 17:46 | 43.98905 | -160.19537 | 34810 ft | 517 kts | 86° |
| 2026-05-04 17:46 | 43.99468 | -160.09577 | 34809 ft | 517 kts | 86° |
| 2026-05-04 17:47 | 44.00062 | -159.99686 | 34804 ft | 518 kts | 83° |
| 2026-05-04 17:47 | 44.01374 | -159.89840 | 34794 ft | 518 kts | 78° |
| 2026-05-04 17:48 | 44.02853 | -159.80027 | 34791 ft | 519 kts | 78° |
| 2026-05-04 17:48 | 44.04301 | -159.70210 | 34785 ft | 519 kts | 78° |
| 2026-05-04 17:49 | 44.05715 | -159.60378 | 34787 ft | 519 kts | 79° |
| 2026-05-04 17:49 | 44.07106 | -159.50536 | 34785 ft | 519 kts | 79° |
| 2026-05-04 17:50 | 44.08489 | -159.40694 | 34784 ft | 518 kts | 79° |
| 2026-05-04 17:50 | 44.09864 | -159.30850 | 34784 ft | 519 kts | 79° |
| 2026-05-04 17:51 | 44.11238 | -159.20985 | 34776 ft | 520 kts | 79° |
| 2026-05-04 17:51 | 44.12605 | -159.11088 | 34769 ft | 521 kts | 79° |
| 2026-05-04 17:52 | 44.13965 | -159.01172 | 34780 ft | 521 kts | 79° |
| 2026-05-04 17:52 | 44.15307 | -158.91314 | 34780 ft | 522 kts | 79° |
| 2026-05-04 17:53 | 44.16652 | -158.81373 | 34775 ft | 523 kts | 79° |
| 2026-05-04 17:53 | 44.17989 | -158.71425 | 34773 ft | 523 kts | 79° |
| 2026-05-04 17:54 | 44.19319 | -158.61452 | 34779 ft | 523 kts | 79° |
| 2026-05-04 17:54 | 44.20640 | -158.51474 | 34776 ft | 524 kts | 79° |
| 2026-05-04 17:55 | 44.21958 | -158.41472 | 34778 ft | 524 kts | 79° |
| 2026-05-04 17:55 | 44.23266 | -158.31475 | 34781 ft | 525 kts | 79° |
| 2026-05-04 17:56 | 44.24561 | -158.21463 | 34780 ft | 525 kts | 79° |
| 2026-05-04 17:56 | 44.25854 | -158.11429 | 34781 ft | 525 kts | 79° |
| 2026-05-04 17:57 | 44.27137 | -158.01398 | 34778 ft | 525 kts | 79° |
| 2026-05-04 17:57 | 44.28410 | -157.91359 | 34777 ft | 525 kts | 79° |
| 2026-05-04 17:58 | 44.29669 | -157.81381 | 34778 ft | 525 kts | 79° |
| 2026-05-04 17:58 | 44.30923 | -157.71343 | 34777 ft | 525 kts | 79° |
| 2026-05-04 17:59 | 44.32169 | -157.61295 | 34775 ft | 525 kts | 80° |
| 2026-05-04 18:00 | 44.34021 | -157.46239 | 34778 ft | 524 kts | 80° |
| 2026-05-04 18:00 | 44.35245 | -157.36199 | 34776 ft | 524 kts | 80° |
| 2026-05-04 18:01 | 44.36459 | -157.26148 | 34776 ft | 524 kts | 81° |
| 2026-05-04 18:01 | 44.37664 | -157.16108 | 34781 ft | 523 kts | 81° |
| 2026-05-04 18:02 | 44.39447 | -157.01110 | 34757 ft | 515 kts | 83° |
| 2026-05-04 18:02 | 44.40603 | -156.91307 | 34750 ft | 509 kts | 83° |
| 2026-05-04 18:03 | 44.41743 | -156.81528 | 34759 ft | 509 kts | 83° |
| 2026-05-04 18:03 | 44.42878 | -156.71736 | 34761 ft | 510 kts | 83° |
| 2026-05-04 18:04 | 44.44004 | -156.61917 | 34764 ft | 512 kts | 83° |
| 2026-05-04 18:05 | 44.45681 | -156.47182 | 34761 ft | 514 kts | 83° |
| 2026-05-04 18:05 | 44.46799 | -156.37280 | 34762 ft | 515 kts | 83° |
| 2026-05-04 18:06 | 44.48458 | -156.22413 | 34778 ft | 515 kts | 83° |
| 2026-05-04 18:06 | 44.49551 | -156.12509 | 34776 ft | 514 kts | 83° |
| 2026-05-04 18:07 | 44.50635 | -156.02614 | 34777 ft | 513 kts | 83° |
| 2026-05-04 18:07 | 44.51710 | -155.92729 | 34773 ft | 513 kts | 83° |
| 2026-05-04 18:08 | 44.52772 | -155.82852 | 34777 ft | 512 kts | 83° |
| 2026-05-04 18:08 | 44.53819 | -155.73046 | 34782 ft | 512 kts | 84° |
| 2026-05-04 18:09 | 44.55907 | -155.53282 | 34777 ft | 513 kts | 84° |
| 2026-05-04 18:10 | 44.56936 | -155.43387 | 34765 ft | 513 kts | 84° |
| 2026-05-04 18:10 | 44.57961 | -155.33465 | 34760 ft | 514 kts | 84° |
| 2026-05-04 18:11 | 44.58977 | -155.23535 | 34746 ft | 515 kts | 84° |
| 2026-05-04 18:11 | 44.59986 | -155.13575 | 34749 ft | 515 kts | 84° |
| 2026-05-04 18:12 | 44.60987 | -155.03623 | 34748 ft | 516 kts | 84° |
| 2026-05-04 18:12 | 44.61980 | -154.93651 | 34745 ft | 516 kts | 84° |
| 2026-05-04 18:13 | 44.62966 | -154.83663 | 34737 ft | 517 kts | 84° |
| 2026-05-04 18:14 | 44.64431 | -154.68681 | 34740 ft | 516 kts | 84° |
| 2026-05-04 18:14 | 44.65393 | -154.58682 | 34739 ft | 517 kts | 84° |
| 2026-05-04 18:15 | 44.67288 | -154.38749 | 34739 ft | 516 kts | 84° |
| 2026-05-04 18:16 | 44.68227 | -154.28748 | 34738 ft | 516 kts | 84° |
| 2026-05-04 18:16 | 44.69158 | -154.18749 | 34746 ft | 516 kts | 84° |
| 2026-05-04 18:17 | 44.70527 | -154.03772 | 34798 ft | 514 kts | 85° |
| 2026-05-04 18:18 | 44.71882 | -153.88792 | 34809 ft | 515 kts | 85° |
| 2026-05-04 18:18 | 44.72775 | -153.78799 | 34806 ft | 516 kts | 85° |
| 2026-05-04 18:19 | 44.74092 | -153.63853 | 34806 ft | 515 kts | 86° |
| 2026-05-04 18:19 | 44.74961 | -153.53855 | 34804 ft | 514 kts | 86° |
| 2026-05-04 18:20 | 44.75821 | -153.43863 | 34800 ft | 514 kts | 86° |
| 2026-05-04 18:20 | 44.76672 | -153.33888 | 34806 ft | 513 kts | 86° |
| 2026-05-04 18:21 | 44.77512 | -153.23913 | 34812 ft | 513 kts | 86° |
| 2026-05-04 18:21 | 44.78344 | -153.13946 | 34794 ft | 512 kts | 87° |
| 2026-05-04 18:22 | 44.79167 | -153.03989 | 34808 ft | 512 kts | 87° |
| 2026-05-04 18:22 | 44.79843 | -152.95721 | 34807 ft | 511 kts | 87° |
| 2026-05-04 18:23 | 44.80644 | -152.85791 | 34809 ft | 510 kts | 88° |
| 2026-05-04 18:23 | 44.81567 | -152.74255 | 34807 ft | 510 kts | 88° |
| 2026-05-04 18:24 | 44.82350 | -152.64336 | 34807 ft | 509 kts | 88° |
| 2026-05-04 18:24 | 44.83000 | -152.56021 | 34809 ft | 509 kts | 88° |
| 2026-05-04 18:25 | 44.83763 | -152.46165 | 34804 ft | 509 kts | 89° |
| 2026-05-04 18:25 | 44.84519 | -152.36269 | 34850 ft | 508 kts | 89° |
| 2026-05-04 18:26 | 44.85267 | -152.26377 | 34852 ft | 508 kts | 89° |
| 2026-05-04 18:26 | 44.86008 | -152.16476 | 34854 ft | 508 kts | 89° |
| 2026-05-04 18:27 | 44.86739 | -152.06562 | 34851 ft | 508 kts | 89° |
| 2026-05-04 18:27 | 44.87460 | -151.96659 | 34853 ft | 507 kts | 89° |
| 2026-05-04 18:28 | 44.88173 | -151.86775 | 34851 ft | 506 kts | 90° |
| 2026-05-04 18:28 | 44.88876 | -151.76925 | 34848 ft | 504 kts | 90° |
| 2026-05-04 18:29 | 44.89565 | -151.67095 | 34851 ft | 503 kts | 90° |
| 2026-05-04 18:29 | 44.90247 | -151.57274 | 34851 ft | 503 kts | 90° |
| 2026-05-04 18:30 | 44.91254 | -151.42559 | 34866 ft | 502 kts | 91° |
| 2026-05-04 18:31 | 44.91912 | -151.32752 | 34885 ft | 502 kts | 91° |
| 2026-05-04 18:31 | 44.92562 | -151.22945 | 34891 ft | 502 kts | 91° |
| 2026-05-04 18:32 | 44.93205 | -151.13135 | 34888 ft | 502 kts | 91° |
| 2026-05-04 18:32 | 44.93839 | -151.03319 | 34903 ft | 502 kts | 91° |
| 2026-05-04 18:33 | 44.94465 | -150.93510 | 34908 ft | 502 kts | 91° |
| 2026-05-04 18:33 | 44.95082 | -150.83689 | 34910 ft | 502 kts | 91° |
| 2026-05-04 18:34 | 44.95687 | -150.73926 | 34908 ft | 502 kts | 91° |
| 2026-05-04 18:34 | 44.96287 | -150.64105 | 34912 ft | 501 kts | 92° |
| 2026-05-04 18:35 | 44.96879 | -150.54304 | 34915 ft | 501 kts | 92° |
| 2026-05-04 18:35 | 44.97461 | -150.44514 | 34905 ft | 500 kts | 92° |
| 2026-05-04 18:36 | 44.98035 | -150.34725 | 34908 ft | 500 kts | 92° |
| 2026-05-04 18:36 | 44.98600 | -150.24947 | 34909 ft | 499 kts | 92° |
| 2026-05-04 18:37 | 44.99155 | -150.15179 | 34907 ft | 498 kts | 92° |
| 2026-05-04 18:37 | 44.99701 | -150.05418 | 34907 ft | 498 kts | 92° |
| 2026-05-04 18:38 | 44.99866 | -149.95719 | 34906 ft | 488 kts | 102° |
| 2026-05-04 18:38 | 44.99300 | -149.86184 | 34912 ft | 486 kts | 103° |
| 2026-05-04 18:39 | 44.98707 | -149.76663 | 34918 ft | 487 kts | 103° |
| 2026-05-04 18:39 | 44.98136 | -149.67134 | 34917 ft | 487 kts | 102° |
| 2026-05-04 18:40 | 44.97575 | -149.57593 | 34918 ft | 488 kts | 102° |
| 2026-05-04 18:40 | 44.97013 | -149.48050 | 34919 ft | 487 kts | 103° |
| 2026-05-04 18:41 | 44.96442 | -149.38511 | 34915 ft | 487 kts | 103° |
| 2026-05-04 18:41 | 44.95867 | -149.29046 | 34917 ft | 487 kts | 103° |
| 2026-05-04 18:42 | 44.95279 | -149.19518 | 34917 ft | 486 kts | 103° |
| 2026-05-04 18:42 | 44.94685 | -149.10014 | 34916 ft | 486 kts | 103° |
| 2026-05-04 18:43 | 44.94081 | -149.00512 | 34916 ft | 486 kts | 103° |
| 2026-05-04 18:43 | 44.93471 | -148.91017 | 34918 ft | 485 kts | 103° |
| 2026-05-04 18:44 | 44.92853 | -148.81534 | 34919 ft | 485 kts | 103° |
| 2026-05-04 18:44 | 44.92226 | -148.72048 | 34917 ft | 486 kts | 103° |
| 2026-05-04 18:45 | 44.91593 | -148.62569 | 34916 ft | 485 kts | 103° |
| 2026-05-04 18:45 | 44.90956 | -148.53154 | 34915 ft | 485 kts | 103° |
| 2026-05-04 18:46 | 44.90307 | -148.43682 | 34920 ft | 485 kts | 103° |
| 2026-05-04 18:46 | 44.89653 | -148.34220 | 34923 ft | 485 kts | 103° |
| 2026-05-04 18:47 | 44.88988 | -148.24759 | 34916 ft | 484 kts | 104° |
| 2026-05-04 18:47 | 44.88317 | -148.15300 | 34917 ft | 484 kts | 104° |
| 2026-05-04 18:48 | 44.87637 | -148.05850 | 34916 ft | 485 kts | 104° |
| 2026-05-04 18:48 | 44.86950 | -147.96401 | 34916 ft | 485 kts | 104° |
| 2026-05-04 18:49 | 44.86254 | -147.86952 | 34917 ft | 484 kts | 104° |
| 2026-05-04 18:49 | 44.85560 | -147.77584 | 34917 ft | 483 kts | 104° |
| 2026-05-04 18:50 | 44.84853 | -147.68172 | 34918 ft | 483 kts | 104° |
| 2026-05-04 18:50 | 44.84135 | -147.58758 | 34916 ft | 482 kts | 104° |
| 2026-05-04 18:51 | 44.83414 | -147.49365 | 34916 ft | 482 kts | 104° |
| 2026-05-04 18:51 | 44.82685 | -147.39985 | 34917 ft | 481 kts | 104° |
| 2026-05-04 18:52 | 44.81949 | -147.30624 | 34916 ft | 481 kts | 104° |
| 2026-05-04 18:52 | 44.81203 | -147.21261 | 34915 ft | 481 kts | 104° |
| 2026-05-04 18:53 | 44.80457 | -147.11923 | 34958 ft | 480 kts | 104° |
| 2026-05-04 18:53 | 44.79699 | -147.02582 | 34964 ft | 480 kts | 104° |
| 2026-05-04 18:54 | 44.78932 | -146.93224 | 34970 ft | 481 kts | 104° |
| 2026-05-04 18:54 | 44.78162 | -146.83928 | 34966 ft | 481 kts | 104° |
| 2026-05-04 18:55 | 44.77381 | -146.74578 | 34973 ft | 481 kts | 104° |
| 2026-05-04 18:55 | 44.76197 | -146.60554 | 34971 ft | 480 kts | 104° |
| 2026-05-04 18:56 | 44.75396 | -146.51215 | 34971 ft | 481 kts | 104° |
| 2026-05-04 18:56 | 44.74587 | -146.41878 | 34973 ft | 481 kts | 104° |
| 2026-05-04 18:57 | 44.73771 | -146.32550 | 34971 ft | 480 kts | 104° |
| 2026-05-04 18:57 | 44.72949 | -146.23225 | 34979 ft | 480 kts | 104° |
| 2026-05-04 18:58 | 44.72121 | -146.13919 | 34990 ft | 480 kts | 105° |
| 2026-05-04 18:58 | 44.71290 | -146.04678 | 34999 ft | 479 kts | 104° |
| 2026-05-04 18:59 | 44.70449 | -145.95383 | 34991 ft | 479 kts | 104° |
| 2026-05-04 18:59 | 44.69597 | -145.86091 | 34994 ft | 479 kts | 104° |
| 2026-05-04 19:00 | 44.68739 | -145.76806 | 34987 ft | 479 kts | 104° |
| 2026-05-04 19:00 | 44.67874 | -145.67535 | 34998 ft | 478 kts | 105° |
| 2026-05-04 19:01 | 44.67003 | -145.58269 | 34989 ft | 478 kts | 105° |
| 2026-05-04 19:01 | 44.66126 | -145.49011 | 35051 ft | 478 kts | 105° |
| 2026-05-04 19:02 | 44.65244 | -145.39817 | 35100 ft | 479 kts | 105° |
| 2026-05-04 19:02 | 44.64345 | -145.30532 | 35106 ft | 481 kts | 105° |
| 2026-05-04 19:03 | 44.63436 | -145.21203 | 35105 ft | 483 kts | 105° |
| 2026-05-04 19:03 | 44.62517 | -145.11844 | 35097 ft | 484 kts | 105° |
| 2026-05-04 19:04 | 44.61591 | -145.02477 | 35086 ft | 484 kts | 105° |
| 2026-05-04 19:04 | 44.60657 | -144.93122 | 35095 ft | 484 kts | 105° |
| 2026-05-04 19:05 | 44.59717 | -144.83780 | 35106 ft | 482 kts | 105° |
| 2026-05-04 19:05 | 44.58769 | -144.74454 | 35109 ft | 482 kts | 105° |
| 2026-05-04 19:06 | 44.57816 | -144.65161 | 35111 ft | 481 kts | 105° |
| 2026-05-04 19:06 | 44.56856 | -144.55872 | 35110 ft | 481 kts | 105° |
| 2026-05-04 19:07 | 44.55889 | -144.46591 | 35110 ft | 481 kts | 105° |
| 2026-05-04 19:07 | 44.54919 | -144.37371 | 35113 ft | 481 kts | 105° |
| 2026-05-04 19:08 | 44.53937 | -144.28099 | 35108 ft | 480 kts | 105° |
| 2026-05-04 19:08 | 44.52950 | -144.18841 | 35112 ft | 480 kts | 105° |
| 2026-05-04 19:09 | 44.51956 | -144.09590 | 35113 ft | 480 kts | 105° |
| 2026-05-04 19:09 | 44.50953 | -144.00343 | 35109 ft | 480 kts | 106° |
| 2026-05-04 19:10 | 44.49943 | -143.91101 | 35111 ft | 480 kts | 105° |
| 2026-05-04 19:10 | 44.48925 | -143.81869 | 35110 ft | 480 kts | 105° |
| 2026-05-04 19:11 | 44.47902 | -143.72637 | 35111 ft | 480 kts | 105° |
| 2026-05-04 19:11 | 44.46877 | -143.63456 | 35111 ft | 480 kts | 105° |
| 2026-05-04 19:12 | 44.45486 | -143.51114 | 35111 ft | 480 kts | 106° |
| 2026-05-04 19:13 | 44.44266 | -143.40396 | 35110 ft | 480 kts | 105° |
| 2026-05-04 19:13 | 44.43379 | -143.32665 | 35112 ft | 480 kts | 106° |
| 2026-05-04 19:14 | 44.42319 | -143.23490 | 35112 ft | 480 kts | 105° |
| 2026-05-04 19:14 | 44.41250 | -143.14274 | 35110 ft | 480 kts | 106° |
| 2026-05-04 19:15 | 44.40172 | -143.05065 | 35112 ft | 480 kts | 105° |
| 2026-05-04 19:15 | 44.38901 | -142.94301 | 35108 ft | 480 kts | 105° |
| 2026-05-04 19:16 | 44.37992 | -142.86659 | 35113 ft | 479 kts | 105° |
| 2026-05-04 19:16 | 44.36891 | -142.77464 | 35111 ft | 479 kts | 105° |
| 2026-05-04 19:17 | 44.35784 | -142.68287 | 35110 ft | 479 kts | 104° |
| 2026-05-04 19:17 | 44.34673 | -142.59120 | 35111 ft | 478 kts | 104° |
| 2026-05-04 19:18 | 44.33556 | -142.49975 | 35112 ft | 477 kts | 104° |
| 2026-05-04 19:18 | 44.32438 | -142.40902 | 35110 ft | 477 kts | 104° |
| 2026-05-04 19:19 | 44.31308 | -142.31778 | 35111 ft | 477 kts | 104° |
| 2026-05-04 19:19 | 44.30171 | -142.22658 | 35111 ft | 477 kts | 104° |
| 2026-05-04 19:20 | 44.29025 | -142.13541 | 35110 ft | 477 kts | 104° |
| 2026-05-04 19:20 | 44.27872 | -142.04414 | 35110 ft | 477 kts | 104° |
| 2026-05-04 19:21 | 44.26710 | -141.95283 | 35112 ft | 478 kts | 104° |
| 2026-05-04 19:21 | 44.25540 | -141.86156 | 35111 ft | 478 kts | 104° |
| 2026-05-04 19:22 | 44.24363 | -141.77028 | 35113 ft | 478 kts | 104° |
| 2026-05-04 19:22 | 44.23179 | -141.67897 | 35111 ft | 478 kts | 104° |
| 2026-05-04 19:23 | 44.21997 | -141.58848 | 35113 ft | 478 kts | 104° |
| 2026-05-04 19:23 | 44.20798 | -141.49739 | 35113 ft | 477 kts | 104° |
| 2026-05-04 19:24 | 44.19595 | -141.40636 | 35111 ft | 477 kts | 104° |
| 2026-05-04 19:24 | 44.18383 | -141.31540 | 35112 ft | 477 kts | 104° |
| 2026-05-04 19:25 | 44.17165 | -141.22456 | 35112 ft | 477 kts | 104° |
| 2026-05-04 19:25 | 44.15940 | -141.13376 | 35111 ft | 477 kts | 104° |
| 2026-05-04 19:26 | 44.14707 | -141.04297 | 35113 ft | 477 kts | 104° |
| 2026-05-04 19:26 | 44.13466 | -140.95212 | 35110 ft | 477 kts | 104° |
| 2026-05-04 19:27 | 44.12223 | -140.86146 | 35110 ft | 477 kts | 104° |
| 2026-05-04 19:27 | 44.10970 | -140.77085 | 35111 ft | 477 kts | 104° |
| 2026-05-04 19:28 | 44.09708 | -140.68033 | 35111 ft | 477 kts | 104° |
| 2026-05-04 19:28 | 44.08451 | -140.59040 | 35113 ft | 476 kts | 104° |
| 2026-05-04 19:29 | 44.07177 | -140.49995 | 35112 ft | 477 kts | 104° |
| 2026-05-04 19:29 | 44.05897 | -140.40960 | 35109 ft | 476 kts | 103° |
| 2026-05-04 19:30 | 44.04611 | -140.31939 | 35112 ft | 476 kts | 103° |
| 2026-05-04 19:30 | 44.03322 | -140.22930 | 35110 ft | 474 kts | 103° |
| 2026-05-04 19:31 | 44.02024 | -140.13937 | 35112 ft | 474 kts | 103° |
| 2026-05-04 19:31 | 44.00690 | -140.04960 | 35110 ft | 474 kts | 107° |
| 2026-05-04 19:32 | 43.98422 | -139.96343 | 35469 ft | 475 kts | 117° |
| 2026-05-04 19:32 | 43.96863 | -139.92334 | 35947 ft | 469 kts | 122° |
| 2026-05-04 19:32 | 43.95211 | -139.88454 | 36434 ft | 465 kts | 123° |
| 2026-05-04 19:32 | 43.93559 | -139.84612 | 36834 ft | 463 kts | 123° |
| 2026-05-04 19:33 | 43.91911 | -139.80786 | 37145 ft | 461 kts | 123° |
| 2026-05-04 19:33 | 43.88650 | -139.73180 | 37107 ft | 454 kts | 122° |
| 2026-05-04 19:34 | 43.85459 | -139.65696 | 37107 ft | 450 kts | 122° |
| 2026-05-04 19:34 | 43.82276 | -139.58240 | 37123 ft | 450 kts | 122° |
| 2026-05-04 19:35 | 43.79089 | -139.50784 | 37131 ft | 450 kts | 122° |
| 2026-05-04 19:35 | 43.75891 | -139.43322 | 37130 ft | 452 kts | 122° |
| 2026-05-04 19:36 | 43.72697 | -139.35892 | 37131 ft | 453 kts | 122° |
| 2026-05-04 19:36 | 43.69470 | -139.28401 | 37131 ft | 454 kts | 122° |
| 2026-05-04 19:37 | 43.66231 | -139.20899 | 37130 ft | 455 kts | 122° |
| 2026-05-04 19:37 | 43.62979 | -139.13396 | 37130 ft | 456 kts | 122° |
| 2026-05-04 19:38 | 43.59716 | -139.05882 | 37130 ft | 456 kts | 122° |
| 2026-05-04 19:38 | 43.56447 | -138.98373 | 37129 ft | 457 kts | 122° |
| 2026-05-04 19:39 | 43.53172 | -138.90868 | 37130 ft | 457 kts | 122° |
| 2026-05-04 19:39 | 43.49890 | -138.83371 | 37121 ft | 457 kts | 121° |
| 2026-05-04 19:40 | 43.46606 | -138.75887 | 37116 ft | 456 kts | 121° |
| 2026-05-04 19:40 | 43.43325 | -138.68432 | 37120 ft | 455 kts | 121° |
| 2026-05-04 19:41 | 43.40046 | -138.60992 | 37117 ft | 455 kts | 121° |
| 2026-05-04 19:41 | 43.36756 | -138.53551 | 37118 ft | 454 kts | 121° |
| 2026-05-04 19:42 | 43.33488 | -138.46179 | 37124 ft | 454 kts | 121° |
| 2026-05-04 19:42 | 43.30198 | -138.38778 | 37120 ft | 454 kts | 121° |
| 2026-05-04 19:43 | 43.26901 | -138.31376 | 37121 ft | 454 kts | 121° |
| 2026-05-04 19:43 | 43.23595 | -138.23973 | 37125 ft | 454 kts | 121° |
| 2026-05-04 19:44 | 43.20287 | -138.16588 | 37130 ft | 454 kts | 121° |
| 2026-05-04 19:44 | 43.16968 | -138.09196 | 37131 ft | 455 kts | 121° |
| 2026-05-04 19:45 | 43.13648 | -138.01819 | 37129 ft | 455 kts | 121° |
| 2026-05-04 19:45 | 43.10343 | -137.94491 | 37136 ft | 455 kts | 121° |
| 2026-05-04 19:46 | 43.07010 | -137.87127 | 37128 ft | 455 kts | 121° |
| 2026-05-04 19:46 | 43.03681 | -137.79783 | 37129 ft | 454 kts | 121° |
| 2026-05-04 19:47 | 43.00348 | -137.72446 | 37128 ft | 454 kts | 120° |
| 2026-05-04 19:47 | 42.97011 | -137.65125 | 37129 ft | 454 kts | 121° |
| 2026-05-04 19:48 | 42.93666 | -137.57803 | 37130 ft | 454 kts | 120° |
| 2026-05-04 19:48 | 42.90320 | -137.50497 | 37128 ft | 454 kts | 120° |
| 2026-05-04 19:49 | 42.86968 | -137.43194 | 37129 ft | 454 kts | 120° |
| 2026-05-04 19:49 | 42.83611 | -137.35904 | 37130 ft | 454 kts | 120° |
| 2026-05-04 19:50 | 42.80249 | -137.28617 | 37128 ft | 454 kts | 120° |
| 2026-05-04 19:50 | 42.76886 | -137.21345 | 37131 ft | 454 kts | 120° |
| 2026-05-04 19:51 | 42.73542 | -137.14132 | 37130 ft | 453 kts | 120° |
| 2026-05-04 19:51 | 42.70173 | -137.06882 | 37127 ft | 453 kts | 120° |
| 2026-05-04 19:52 | 42.66805 | -136.99654 | 37129 ft | 453 kts | 120° |
| 2026-05-04 19:52 | 42.63432 | -136.92432 | 37129 ft | 452 kts | 120° |
| 2026-05-04 19:53 | 42.60060 | -136.85229 | 37128 ft | 452 kts | 120° |
| 2026-05-04 19:53 | 42.56685 | -136.78038 | 37129 ft | 451 kts | 120° |
| 2026-05-04 19:54 | 42.53313 | -136.70868 | 37128 ft | 451 kts | 120° |
| 2026-05-04 19:54 | 42.49934 | -136.63704 | 37127 ft | 451 kts | 120° |
| 2026-05-04 19:55 | 42.46556 | -136.56557 | 37130 ft | 450 kts | 120° |
| 2026-05-04 19:55 | 42.43198 | -136.49471 | 37129 ft | 450 kts | 120° |
| 2026-05-04 19:56 | 42.39815 | -136.42349 | 37123 ft | 450 kts | 120° |
| 2026-05-04 19:56 | 42.36422 | -136.35223 | 37119 ft | 450 kts | 119° |
| 2026-05-04 19:57 | 42.33030 | -136.28116 | 37120 ft | 450 kts | 119° |
| 2026-05-04 19:57 | 42.29635 | -136.21018 | 37120 ft | 450 kts | 119° |
| 2026-05-04 19:58 | 42.26234 | -136.13923 | 37099 ft | 450 kts | 119° |
| 2026-05-04 19:58 | 42.22825 | -136.06833 | 37085 ft | 450 kts | 119° |
| 2026-05-04 19:59 | 42.19414 | -135.99754 | 37098 ft | 449 kts | 119° |
| 2026-05-04 19:59 | 42.16004 | -135.92691 | 37084 ft | 449 kts | 119° |
| 2026-05-04 20:00 | 42.12591 | -135.85638 | 37084 ft | 449 kts | 119° |
| 2026-05-04 20:00 | 42.09201 | -135.78652 | 37090 ft | 448 kts | 119° |
| 2026-05-04 20:01 | 42.05787 | -135.71632 | 37093 ft | 448 kts | 119° |
| 2026-05-04 20:01 | 42.02370 | -135.64621 | 37090 ft | 448 kts | 119° |
| 2026-05-04 20:02 | 41.99525 | -135.58795 | 37096 ft | 448 kts | 119° |
| 2026-05-04 20:02 | 41.96095 | -135.51787 | 37100 ft | 449 kts | 119° |
| 2026-05-04 20:03 | 41.92659 | -135.44790 | 37091 ft | 449 kts | 119° |
| 2026-05-04 20:03 | 41.89216 | -135.37784 | 37086 ft | 449 kts | 119° |
| 2026-05-04 20:04 | 41.85771 | -135.30792 | 37082 ft | 449 kts | 119° |
| 2026-05-04 20:04 | 41.82313 | -135.23798 | 37083 ft | 450 kts | 119° |
| 2026-05-04 20:05 | 41.78857 | -135.16820 | 37083 ft | 449 kts | 119° |
| 2026-05-04 20:05 | 41.75403 | -135.09859 | 37082 ft | 449 kts | 119° |
| 2026-05-04 20:06 | 41.71947 | -135.02911 | 37083 ft | 448 kts | 119° |
| 2026-05-04 20:06 | 41.68486 | -134.95971 | 37083 ft | 447 kts | 119° |
| 2026-05-04 20:07 | 41.65036 | -134.89068 | 37079 ft | 446 kts | 119° |
| 2026-05-04 20:07 | 41.61585 | -134.82179 | 37084 ft | 445 kts | 119° |
| 2026-05-04 20:08 | 41.58139 | -134.75314 | 37083 ft | 444 kts | 119° |
| 2026-05-04 20:08 | 41.54717 | -134.68512 | 37086 ft | 444 kts | 119° |
| 2026-05-04 20:09 | 41.51269 | -134.61676 | 37080 ft | 443 kts | 119° |
| 2026-05-04 20:09 | 41.47821 | -134.54853 | 37085 ft | 443 kts | 119° |
| 2026-05-04 20:10 | 41.44374 | -134.48045 | 37083 ft | 443 kts | 119° |
| 2026-05-04 20:10 | 41.40923 | -134.41248 | 37083 ft | 443 kts | 119° |
| 2026-05-04 20:11 | 41.37468 | -134.34456 | 37083 ft | 443 kts | 119° |
| 2026-05-04 20:11 | 41.34007 | -134.27669 | 37083 ft | 443 kts | 119° |
| 2026-05-04 20:12 | 41.30543 | -134.20892 | 37083 ft | 443 kts | 119° |
| 2026-05-04 20:12 | 41.27068 | -134.14104 | 37084 ft | 443 kts | 119° |
| 2026-05-04 20:13 | 41.23615 | -134.07374 | 37081 ft | 444 kts | 119° |
| 2026-05-04 20:13 | 41.20127 | -134.00596 | 37082 ft | 444 kts | 119° |
| 2026-05-04 20:14 | 41.16640 | -133.93834 | 37083 ft | 444 kts | 119° |
| 2026-05-04 20:14 | 41.13152 | -133.87084 | 37097 ft | 443 kts | 119° |
| 2026-05-04 20:15 | 41.09665 | -133.80351 | 37097 ft | 443 kts | 119° |
| 2026-05-04 20:15 | 41.06176 | -133.73625 | 37097 ft | 443 kts | 119° |
| 2026-05-04 20:16 | 41.02683 | -133.66905 | 37093 ft | 443 kts | 120° |
| 2026-05-04 20:16 | 40.99184 | -133.60197 | 37095 ft | 443 kts | 120° |
| 2026-05-04 20:17 | 40.95681 | -133.53489 | 37083 ft | 443 kts | 120° |
| 2026-05-04 20:17 | 40.92166 | -133.46774 | 37082 ft | 444 kts | 120° |
| 2026-05-04 20:18 | 40.88666 | -133.40107 | 37084 ft | 444 kts | 120° |
| 2026-05-04 20:18 | 40.85136 | -133.33391 | 37084 ft | 444 kts | 120° |
| 2026-05-04 20:19 | 40.81601 | -133.26684 | 37084 ft | 445 kts | 120° |
| 2026-05-04 20:19 | 40.78057 | -133.19971 | 37080 ft | 445 kts | 120° |
| 2026-05-04 20:20 | 40.74510 | -133.13268 | 37084 ft | 446 kts | 120° |
| 2026-05-04 20:20 | 40.70952 | -133.06560 | 37083 ft | 447 kts | 120° |
| 2026-05-04 20:21 | 40.67387 | -132.99852 | 37068 ft | 447 kts | 120° |
| 2026-05-04 20:21 | 40.62061 | -132.89853 | 37073 ft | 446 kts | 120° |
| 2026-05-04 20:22 | 40.58489 | -132.83171 | 37073 ft | 446 kts | 120° |
| 2026-05-04 20:22 | 40.54912 | -132.76490 | 37074 ft | 446 kts | 120° |
| 2026-05-04 20:23 | 40.51336 | -132.69827 | 37074 ft | 446 kts | 120° |
| 2026-05-04 20:23 | 40.47751 | -132.63160 | 37074 ft | 446 kts | 120° |
| 2026-05-04 20:24 | 40.44160 | -132.56500 | 37074 ft | 447 kts | 120° |
| 2026-05-04 20:24 | 40.40564 | -132.49842 | 37075 ft | 447 kts | 120° |
| 2026-05-04 20:25 | 40.36968 | -132.43196 | 37072 ft | 447 kts | 120° |
| 2026-05-04 20:25 | 40.33383 | -132.36586 | 37076 ft | 448 kts | 120° |
| 2026-05-04 20:26 | 40.29766 | -132.29933 | 37074 ft | 449 kts | 120° |
| 2026-05-04 20:26 | 40.26141 | -132.23277 | 37074 ft | 449 kts | 120° |
| 2026-05-04 20:27 | 40.22509 | -132.16618 | 37073 ft | 450 kts | 121° |
| 2026-05-04 20:27 | 40.18868 | -132.09967 | 37076 ft | 450 kts | 121° |
| 2026-05-04 20:28 | 40.15217 | -132.03306 | 37073 ft | 450 kts | 121° |
| 2026-05-04 20:28 | 40.11566 | -131.96654 | 37074 ft | 450 kts | 121° |
| 2026-05-04 20:29 | 40.07907 | -131.90009 | 37074 ft | 451 kts | 121° |
| 2026-05-04 20:29 | 40.04246 | -131.83374 | 37074 ft | 451 kts | 121° |
| 2026-05-04 20:30 | 40.00577 | -131.76738 | 37076 ft | 451 kts | 121° |
| 2026-05-04 20:30 | 39.96932 | -131.70161 | 37081 ft | 451 kts | 121° |
| 2026-05-04 20:31 | 39.93258 | -131.63546 | 37085 ft | 451 kts | 121° |
| 2026-05-04 20:31 | 39.89573 | -131.56920 | 37083 ft | 451 kts | 121° |
| 2026-05-04 20:32 | 39.85883 | -131.50300 | 37083 ft | 452 kts | 121° |
| 2026-05-04 20:32 | 39.82189 | -131.43687 | 37082 ft | 452 kts | 121° |
| 2026-05-04 20:33 | 39.78488 | -131.37078 | 37082 ft | 452 kts | 121° |
| 2026-05-04 20:33 | 39.74779 | -131.30463 | 37082 ft | 453 kts | 121° |
| 2026-05-04 20:34 | 39.71063 | -131.23851 | 37085 ft | 454 kts | 121° |
| 2026-05-04 20:34 | 39.67336 | -131.17235 | 37085 ft | 454 kts | 121° |
| 2026-05-04 20:35 | 39.63601 | -131.10622 | 37084 ft | 454 kts | 121° |
| 2026-05-04 20:35 | 39.59887 | -131.04055 | 37081 ft | 455 kts | 121° |
| 2026-05-04 20:36 | 39.56142 | -130.97449 | 37083 ft | 455 kts | 121° |
| 2026-05-04 20:36 | 39.52392 | -130.90849 | 37081 ft | 455 kts | 121° |
| 2026-05-04 20:37 | 39.48636 | -130.84249 | 37081 ft | 455 kts | 121° |
| 2026-05-04 20:37 | 39.44875 | -130.77655 | 37082 ft | 455 kts | 122° |
| 2026-05-04 20:38 | 39.41111 | -130.71066 | 37076 ft | 456 kts | 121° |
| 2026-05-04 20:38 | 39.37337 | -130.64479 | 37073 ft | 456 kts | 122° |
| 2026-05-04 20:39 | 39.33561 | -130.57901 | 37074 ft | 456 kts | 122° |
| 2026-05-04 20:39 | 39.29782 | -130.51329 | 37073 ft | 455 kts | 122° |
| 2026-05-04 20:40 | 39.26002 | -130.44769 | 37074 ft | 455 kts | 122° |
| 2026-05-04 20:40 | 39.22224 | -130.38226 | 37073 ft | 455 kts | 122° |
| 2026-05-04 20:41 | 39.18439 | -130.31684 | 37074 ft | 455 kts | 122° |
| 2026-05-04 20:41 | 39.14645 | -130.25141 | 37071 ft | 456 kts | 122° |
| 2026-05-04 20:42 | 39.10876 | -130.18652 | 37075 ft | 455 kts | 122° |
| 2026-05-04 20:42 | 39.07049 | -130.12075 | 37073 ft | 456 kts | 122° |
| 2026-05-04 20:43 | 39.03261 | -130.05581 | 37074 ft | 458 kts | 122° |
| 2026-05-04 20:43 | 38.99930 | -129.98688 | 37079 ft | 451 kts | 111° |
| 2026-05-04 20:44 | 38.97644 | -129.91230 | 37076 ft | 447 kts | 104° |
| 2026-05-04 20:44 | 38.95706 | -129.83625 | 37065 ft | 448 kts | 104° |
| 2026-05-04 20:45 | 38.93752 | -129.76001 | 37066 ft | 449 kts | 104° |
| 2026-05-04 20:45 | 38.91778 | -129.68387 | 37065 ft | 450 kts | 104° |
| 2026-05-04 20:46 | 38.89784 | -129.60770 | 37064 ft | 450 kts | 104° |
| 2026-05-04 20:46 | 38.87787 | -129.53165 | 37067 ft | 450 kts | 104° |
| 2026-05-04 20:47 | 38.85782 | -129.45561 | 37063 ft | 450 kts | 104° |
| 2026-05-04 20:47 | 38.83773 | -129.37959 | 37064 ft | 450 kts | 104° |
| 2026-05-04 20:48 | 38.81758 | -129.30355 | 37065 ft | 450 kts | 104° |
| 2026-05-04 20:48 | 38.79741 | -129.22764 | 37064 ft | 450 kts | 105° |
| 2026-05-04 20:49 | 38.77716 | -129.15170 | 37064 ft | 450 kts | 105° |
| 2026-05-04 20:49 | 38.75686 | -129.07583 | 37064 ft | 450 kts | 105° |
| 2026-05-04 20:50 | 38.73667 | -129.00054 | 37066 ft | 450 kts | 105° |
| 2026-05-04 20:50 | 38.71626 | -128.92468 | 37066 ft | 450 kts | 105° |
| 2026-05-04 20:51 | 38.69582 | -128.84892 | 37064 ft | 450 kts | 105° |
| 2026-05-04 20:51 | 38.67530 | -128.77307 | 37065 ft | 451 kts | 105° |
| 2026-05-04 20:52 | 38.65821 | -128.71004 | 37067 ft | 451 kts | 105° |
| 2026-05-04 20:52 | 38.63760 | -128.63431 | 37065 ft | 451 kts | 105° |
| 2026-05-04 20:53 | 38.61693 | -128.55852 | 37070 ft | 451 kts | 105° |
| 2026-05-04 20:53 | 38.59618 | -128.48272 | 37074 ft | 452 kts | 105° |
| 2026-05-04 20:54 | 38.57537 | -128.40694 | 37075 ft | 452 kts | 105° |
| 2026-05-04 20:54 | 38.55450 | -128.33110 | 37073 ft | 452 kts | 105° |
| 2026-05-04 20:55 | 38.53357 | -128.25527 | 37073 ft | 453 kts | 105° |
| 2026-05-04 20:55 | 38.51255 | -128.17931 | 37075 ft | 454 kts | 105° |
| 2026-05-04 20:56 | 38.49140 | -128.10326 | 37074 ft | 455 kts | 105° |
| 2026-05-04 20:56 | 38.47018 | -128.02706 | 37068 ft | 456 kts | 106° |
| 2026-05-04 20:57 | 38.44886 | -127.95081 | 37064 ft | 457 kts | 106° |
| 2026-05-04 20:57 | 38.42749 | -127.87445 | 37063 ft | 457 kts | 106° |
| 2026-05-04 20:58 | 38.40603 | -127.79811 | 37064 ft | 457 kts | 106° |
| 2026-05-04 20:58 | 38.38457 | -127.72188 | 37065 ft | 457 kts | 106° |
| 2026-05-04 20:59 | 38.36320 | -127.64621 | 37065 ft | 457 kts | 106° |
| 2026-05-04 20:59 | 38.34159 | -127.57005 | 37064 ft | 457 kts | 106° |
| 2026-05-04 21:00 | 38.31993 | -127.49394 | 37065 ft | 456 kts | 106° |
| 2026-05-04 21:00 | 38.29833 | -127.41809 | 37066 ft | 455 kts | 106° |
| 2026-05-04 21:01 | 38.27673 | -127.34244 | 37064 ft | 454 kts | 106° |
| 2026-05-04 21:01 | 38.25511 | -127.26701 | 37055 ft | 454 kts | 107° |
| 2026-05-04 21:02 | 38.23347 | -127.19181 | 37071 ft | 451 kts | 106° |
| 2026-05-04 21:02 | 38.21193 | -127.11712 | 37069 ft | 448 kts | 106° |
| 2026-05-04 21:03 | 38.19062 | -127.04333 | 37072 ft | 447 kts | 106° |
| 2026-05-04 21:03 | 38.16917 | -126.96930 | 37073 ft | 446 kts | 106° |
| 2026-05-04 21:04 | 38.14769 | -126.89539 | 37073 ft | 445 kts | 106° |
| 2026-05-04 21:04 | 38.12616 | -126.82148 | 37074 ft | 446 kts | 107° |
| 2026-05-04 21:05 | 38.10458 | -126.74752 | 37075 ft | 447 kts | 107° |
| 2026-05-04 21:05 | 38.08285 | -126.67353 | 37075 ft | 448 kts | 107° |
| 2026-05-04 21:06 | 38.06105 | -126.59936 | 37078 ft | 449 kts | 107° |
| 2026-05-04 21:06 | 38.03920 | -126.52520 | 37070 ft | 448 kts | 107° |
| 2026-05-04 21:07 | 38.01732 | -126.45123 | 37075 ft | 449 kts | 107° |
| 2026-05-04 21:07 | 37.99537 | -126.37688 | 37076 ft | 451 kts | 107° |
| 2026-05-04 21:08 | 37.97318 | -126.30234 | 37071 ft | 452 kts | 107° |
| 2026-05-04 21:08 | 37.95096 | -126.22765 | 37074 ft | 453 kts | 107° |
| 2026-05-04 21:09 | 37.92866 | -126.15269 | 37076 ft | 457 kts | 108° |
| 2026-05-04 21:09 | 37.90616 | -126.07787 | 37070 ft | 457 kts | 107° |
| 2026-05-04 21:10 | 37.88360 | -126.00287 | 37067 ft | 453 kts | 108° |
| 2026-05-04 21:10 | 37.86116 | -125.92840 | 37079 ft | 453 kts | 107° |
| 2026-05-04 21:11 | 37.83888 | -125.85429 | 37076 ft | 450 kts | 108° |
| 2026-05-04 21:11 | 37.81546 | -125.78092 | 37093 ft | 450 kts | 110° |
| 2026-05-04 21:12 | 37.79011 | -125.70841 | 37083 ft | 452 kts | 111° |
| 2026-05-04 21:12 | 37.76442 | -125.63565 | 37084 ft | 455 kts | 110° |
| 2026-05-04 21:13 | 37.73866 | -125.56237 | 37074 ft | 457 kts | 111° |
| 2026-05-04 21:13 | 37.71306 | -125.48888 | 37097 ft | 458 kts | 111° |
| 2026-05-04 21:14 | 37.68732 | -125.41496 | 37083 ft | 460 kts | 111° |
| 2026-05-04 21:14 | 37.66142 | -125.34082 | 37079 ft | 462 kts | 111° |
| 2026-05-04 21:15 | 37.63558 | -125.26707 | 37085 ft | 463 kts | 112° |
| 2026-05-04 21:15 | 37.60945 | -125.19257 | 37083 ft | 465 kts | 112° |
| 2026-05-04 21:16 | 37.58319 | -125.11801 | 37080 ft | 466 kts | 112° |
| 2026-05-04 21:16 | 37.55683 | -125.04340 | 37082 ft | 466 kts | 112° |
| 2026-05-04 21:17 | 37.53037 | -124.96861 | 37084 ft | 468 kts | 112° |
| 2026-05-04 21:17 | 37.50381 | -124.89361 | 37078 ft | 470 kts | 113° |
| 2026-05-04 21:18 | 37.47705 | -124.81841 | 37067 ft | 470 kts | 113° |
| 2026-05-04 21:18 | 37.45026 | -124.74331 | 37065 ft | 470 kts | 113° |
| 2026-05-04 21:19 | 37.42342 | -124.66822 | 37061 ft | 470 kts | 113° |
| 2026-05-04 21:19 | 37.39656 | -124.59334 | 37064 ft | 469 kts | 114° |
| 2026-05-04 21:20 | 37.36974 | -124.51863 | 37066 ft | 468 kts | 114° |
| 2026-05-04 21:20 | 37.34312 | -124.44461 | 37070 ft | 468 kts | 114° |
| 2026-05-04 21:21 | 37.31622 | -124.37011 | 37079 ft | 467 kts | 114° |
| 2026-05-04 21:21 | 37.28935 | -124.29585 | 37090 ft | 468 kts | 114° |
| 2026-05-04 21:22 | 37.26234 | -124.22140 | 37083 ft | 468 kts | 114° |
| 2026-05-04 21:22 | 37.23525 | -124.14689 | 37086 ft | 470 kts | 114° |
| 2026-05-04 21:23 | 37.20803 | -124.07225 | 37083 ft | 471 kts | 114° |
| 2026-05-04 21:23 | 37.18065 | -123.99731 | 37082 ft | 472 kts | 114° |
| 2026-05-04 21:24 | 37.15326 | -123.92249 | 37082 ft | 471 kts | 115° |
| 2026-05-04 21:24 | 37.12592 | -123.84802 | 37082 ft | 470 kts | 116° |
| 2026-05-04 21:25 | 37.09873 | -123.77415 | 37099 ft | 470 kts | 116° |
| 2026-05-04 21:25 | 37.07121 | -123.69956 | 37093 ft | 472 kts | 116° |
| 2026-05-04 21:26 | 37.04352 | -123.62471 | 37086 ft | 475 kts | 116° |
| 2026-05-04 21:26 | 37.01557 | -123.54935 | 37083 ft | 478 kts | 117° |
| 2026-05-04 21:27 | 36.98743 | -123.47366 | 37088 ft | 481 kts | 117° |
| 2026-05-04 21:27 | 36.95915 | -123.39774 | 37091 ft | 482 kts | 117° |
| 2026-05-04 21:28 | 36.93075 | -123.32168 | 37088 ft | 483 kts | 117° |
| 2026-05-04 21:28 | 36.90229 | -123.24565 | 37092 ft | 483 kts | 117° |
| 2026-05-04 21:29 | 36.87380 | -123.16974 | 37100 ft | 483 kts | 118° |
| 2026-05-04 21:29 | 36.84527 | -123.09389 | 37079 ft | 482 kts | 118° |
| 2026-05-04 21:30 | 36.81690 | -123.01868 | 37081 ft | 482 kts | 118° |
| 2026-05-04 21:30 | 36.78829 | -122.94302 | 37082 ft | 482 kts | 119° |
| 2026-05-04 21:31 | 36.74532 | -122.82970 | 37082 ft | 482 kts | 119° |
| 2026-05-04 21:32 | 36.71665 | -122.75428 | 37083 ft | 482 kts | 120° |
| 2026-05-04 21:32 | 36.68787 | -122.67881 | 37080 ft | 483 kts | 120° |
| 2026-05-04 21:33 | 36.65900 | -122.60327 | 37083 ft | 484 kts | 120° |
| 2026-05-04 21:33 | 36.63017 | -122.52806 | 37081 ft | 484 kts | 121° |
| 2026-05-04 21:34 | 36.60116 | -122.45245 | 37083 ft | 484 kts | 121° |
| 2026-05-04 21:34 | 36.57197 | -122.37664 | 37085 ft | 486 kts | 121° |
| 2026-05-04 21:35 | 36.54270 | -122.30084 | 37083 ft | 487 kts | 122° |
| 2026-05-04 21:35 | 36.51332 | -122.22487 | 37082 ft | 487 kts | 122° |
| 2026-05-04 21:36 | 36.48402 | -122.14931 | 37084 ft | 488 kts | 122° |
| 2026-05-04 21:36 | 36.45450 | -122.07335 | 37084 ft | 489 kts | 123° |
| 2026-05-04 21:37 | 36.42486 | -121.99723 | 37082 ft | 489 kts | 123° |
| 2026-05-04 21:37 | 36.39519 | -121.92123 | 37084 ft | 489 kts | 123° |
| 2026-05-04 21:38 | 36.36542 | -121.84524 | 37079 ft | 490 kts | 123° |
| 2026-05-04 21:38 | 36.33556 | -121.76918 | 37081 ft | 491 kts | 123° |
| 2026-05-04 21:39 | 36.30566 | -121.69312 | 37073 ft | 491 kts | 123° |
| 2026-05-04 21:39 | 36.27578 | -121.61727 | 37084 ft | 489 kts | 123° |
| 2026-05-04 21:40 | 36.24588 | -121.54154 | 37083 ft | 489 kts | 123° |
| 2026-05-04 21:40 | 36.22098 | -121.47868 | 37086 ft | 488 kts | 123° |
| 2026-05-04 21:41 | 36.19108 | -121.40340 | 37080 ft | 487 kts | 123° |
| 2026-05-04 21:41 | 36.16119 | -121.32824 | 37073 ft | 486 kts | 123° |
| 2026-05-04 21:42 | 36.12642 | -121.24113 | 37076 ft | 486 kts | 123° |
| 2026-05-04 21:42 | 36.10132 | -121.17831 | 37077 ft | 486 kts | 123° |
| 2026-05-04 21:43 | 36.07134 | -121.10344 | 37068 ft | 486 kts | 123° |
| 2026-05-04 21:43 | 36.04125 | -121.02853 | 37073 ft | 486 kts | 124° |
| 2026-05-04 21:44 | 36.01130 | -120.95413 | 37075 ft | 486 kts | 124° |
| 2026-05-04 21:44 | 35.98110 | -120.87928 | 37070 ft | 487 kts | 125° |
| 2026-05-04 21:45 | 35.95083 | -120.80441 | 37080 ft | 488 kts | 125° |
| 2026-05-04 21:45 | 35.92041 | -120.72933 | 37080 ft | 489 kts | 125° |
| 2026-05-04 21:46 | 35.88987 | -120.65410 | 37076 ft | 490 kts | 125° |
| 2026-05-04 21:46 | 35.85924 | -120.57885 | 37075 ft | 491 kts | 125° |
| 2026-05-04 21:47 | 35.82855 | -120.50363 | 37073 ft | 491 kts | 125° |
| 2026-05-04 21:47 | 35.79808 | -120.42913 | 37074 ft | 490 kts | 125° |
| 2026-05-04 21:48 | 35.76739 | -120.35422 | 37067 ft | 489 kts | 125° |
| 2026-05-04 21:48 | 35.73676 | -120.27964 | 37066 ft | 487 kts | 125° |
| 2026-05-04 21:49 | 35.70618 | -120.20535 | 37065 ft | 486 kts | 125° |
| 2026-05-04 21:49 | 35.67532 | -120.13166 | 37052 ft | 477 kts | 130° |
| 2026-05-04 21:49 | 35.65519 | -120.10042 | 37063 ft | 457 kts | 147° |
| 2026-05-04 21:50 | 35.63001 | -120.07851 | 37050 ft | 434 kts | 159° |
| 2026-05-04 21:50 | 35.57848 | -120.04175 | 36771 ft | 423 kts | 158° |
| 2026-05-04 21:50 | 35.55342 | -120.02307 | 36452 ft | 420 kts | 158° |
| 2026-05-04 21:51 | 35.52866 | -120.00441 | 36469 ft | 416 kts | 158° |
| 2026-05-04 21:51 | 35.47849 | -119.96670 | 36445 ft | 429 kts | 158° |
| 2026-05-04 21:52 | 35.42698 | -119.92798 | 36011 ft | 438 kts | 158° |
| 2026-05-04 21:52 | 35.40114 | -119.90849 | 35552 ft | 434 kts | 159° |
| 2026-05-04 21:52 | 35.37559 | -119.88921 | 35106 ft | 429 kts | 159° |
| 2026-05-04 21:52 | 35.35022 | -119.87017 | 34626 ft | 426 kts | 159° |
| 2026-05-04 21:53 | 35.32507 | -119.85132 | 34168 ft | 422 kts | 160° |
| 2026-05-04 21:53 | 35.30011 | -119.83263 | 33698 ft | 419 kts | 160° |
| 2026-05-04 21:53 | 35.27554 | -119.81345 | 33230 ft | 420 kts | 157° |
| 2026-05-04 21:53 | 35.25212 | -119.79233 | 32767 ft | 417 kts | 155° |
| 2026-05-04 21:54 | 35.22932 | -119.77047 | 32325 ft | 415 kts | 154° |
| 2026-05-04 21:54 | 35.20677 | -119.74860 | 31873 ft | 412 kts | 155° |
| 2026-05-04 21:54 | 35.18466 | -119.72734 | 31420 ft | 408 kts | 155° |
| 2026-05-04 21:54 | 35.16235 | -119.70613 | 30975 ft | 404 kts | 155° |
| 2026-05-04 21:55 | 35.14016 | -119.68523 | 30532 ft | 401 kts | 156° |
| 2026-05-04 21:55 | 35.11803 | -119.66455 | 30094 ft | 398 kts | 156° |
| 2026-05-04 21:55 | 35.09611 | -119.64414 | 29652 ft | 394 kts | 156° |
| 2026-05-04 21:55 | 35.07438 | -119.62396 | 29213 ft | 392 kts | 156° |
| 2026-05-04 21:56 | 35.05276 | -119.60386 | 28769 ft | 389 kts | 156° |
| 2026-05-04 21:56 | 35.03135 | -119.58394 | 28336 ft | 385 kts | 156° |
| 2026-05-04 21:56 | 35.01013 | -119.56426 | 27916 ft | 382 kts | 155° |
| 2026-05-04 21:56 | 34.98906 | -119.54471 | 27525 ft | 379 kts | 155° |
| 2026-05-04 21:57 | 34.96813 | -119.52531 | 27211 ft | 377 kts | 155° |
| 2026-05-04 21:57 | 34.94737 | -119.50606 | 26974 ft | 374 kts | 155° |
| 2026-05-04 21:57 | 34.92675 | -119.48695 | 26708 ft | 371 kts | 155° |
| 2026-05-04 21:57 | 34.90623 | -119.46802 | 26397 ft | 369 kts | 155° |
| 2026-05-04 21:58 | 34.88563 | -119.44945 | 26041 ft | 369 kts | 155° |
| 2026-05-04 21:58 | 34.86498 | -119.43105 | 25688 ft | 367 kts | 155° |
| 2026-05-04 21:58 | 34.84434 | -119.41276 | 25342 ft | 367 kts | 155° |
| 2026-05-04 21:58 | 34.82373 | -119.39438 | 25026 ft | 367 kts | 155° |
| 2026-05-04 21:59 | 34.80318 | -119.37600 | 24707 ft | 365 kts | 154° |
| 2026-05-04 21:59 | 34.78307 | -119.35802 | 24384 ft | 362 kts | 154° |
| 2026-05-04 21:59 | 34.76280 | -119.33999 | 24095 ft | 361 kts | 154° |
| 2026-05-04 21:59 | 34.74215 | -119.32166 | 23623 ft | 377 kts | 154° |
| 2026-05-04 22:00 | 34.72052 | -119.30277 | 23035 ft | 384 kts | 154° |
| 2026-05-04 22:00 | 34.69891 | -119.28384 | 22581 ft | 383 kts | 153° |
| 2026-05-04 22:00 | 34.67732 | -119.26495 | 22141 ft | 380 kts | 153° |
| 2026-05-04 22:00 | 34.65595 | -119.24628 | 21726 ft | 377 kts | 153° |
| 2026-05-04 22:01 | 34.63469 | -119.22779 | 21315 ft | 375 kts | 153° |
| 2026-05-04 22:01 | 34.61348 | -119.20952 | 20889 ft | 373 kts | 153° |
| 2026-05-04 22:01 | 34.59239 | -119.19141 | 20483 ft | 371 kts | 153° |
| 2026-05-04 22:01 | 34.57142 | -119.17333 | 20107 ft | 367 kts | 152° |
| 2026-05-04 22:02 | 34.55100 | -119.15552 | 20049 ft | 354 kts | 152° |
| 2026-05-04 22:02 | 34.53145 | -119.13812 | 20056 ft | 345 kts | 152° |
| 2026-05-04 22:02 | 34.51215 | -119.12100 | 19963 ft | 343 kts | 152° |
| 2026-05-04 22:02 | 34.49295 | -119.10400 | 19655 ft | 341 kts | 152° |
| 2026-05-04 22:03 | 34.47383 | -119.08704 | 19308 ft | 339 kts | 152° |
| 2026-05-04 22:03 | 34.45477 | -119.07020 | 18900 ft | 338 kts | 152° |
| 2026-05-04 22:03 | 34.43576 | -119.05351 | 18475 ft | 337 kts | 152° |
| 2026-05-04 22:03 | 34.41671 | -119.03700 | 18089 ft | 336 kts | 152° |
| 2026-05-04 22:04 | 34.39778 | -119.02064 | 17715 ft | 333 kts | 152° |
| 2026-05-04 22:04 | 34.37901 | -119.00437 | 17341 ft | 331 kts | 151° |
| 2026-05-04 22:04 | 34.36057 | -118.98843 | 16940 ft | 329 kts | 151° |
| 2026-05-04 22:04 | 34.34197 | -118.97236 | 16550 ft | 328 kts | 150° |
| 2026-05-04 22:05 | 34.32366 | -118.95595 | 16161 ft | 327 kts | 149° |
| 2026-05-04 22:05 | 34.30559 | -118.93943 | 15778 ft | 325 kts | 149° |
| 2026-05-04 22:05 | 34.28760 | -118.92302 | 15397 ft | 323 kts | 149° |
| 2026-05-04 22:05 | 34.26967 | -118.90673 | 15005 ft | 321 kts | 149° |
| 2026-05-04 22:06 | 34.25186 | -118.89057 | 14598 ft | 320 kts | 148° |
| 2026-05-04 22:06 | 34.23417 | -118.87433 | 14208 ft | 318 kts | 148° |
| 2026-05-04 22:06 | 34.21658 | -118.85814 | 13833 ft | 316 kts | 148° |
| 2026-05-04 22:06 | 34.19915 | -118.84211 | 13444 ft | 314 kts | 148° |
| 2026-05-04 22:07 | 34.18178 | -118.82617 | 13071 ft | 312 kts | 147° |
| 2026-05-04 22:07 | 34.16486 | -118.81048 | 13029 ft | 303 kts | 147° |
| 2026-05-04 22:07 | 34.14849 | -118.79410 | 12697 ft | 312 kts | 143° |
| 2026-05-04 22:07 | 34.13222 | -118.77622 | 12226 ft | 318 kts | 142° |
| 2026-05-04 22:08 | 34.11611 | -118.75823 | 11780 ft | 309 kts | 141° |
| 2026-05-04 22:08 | 34.10085 | -118.74124 | 11389 ft | 295 kts | 141° |
| 2026-05-04 22:08 | 34.08590 | -118.72472 | 11009 ft | 289 kts | 141° |
| 2026-05-04 22:08 | 34.07077 | -118.70828 | 10637 ft | 297 kts | 141° |
| 2026-05-04 22:09 | 34.05521 | -118.69146 | 10274 ft | 304 kts | 141° |
| 2026-05-04 22:09 | 34.03973 | -118.67437 | 9916 ft | 300 kts | 135° |
| 2026-05-04 22:09 | 34.02909 | -118.65312 | 9469 ft | 293 kts | 107° |
| 2026-05-04 22:09 | 34.02606 | -118.62910 | 8916 ft | 288 kts | 96° |
| 2026-05-04 22:10 | 34.02411 | -118.60548 | 8725 ft | 277 kts | 97° |
| 2026-05-04 22:10 | 34.02196 | -118.58239 | 8792 ft | 280 kts | 97° |
| 2026-05-04 22:10 | 34.01970 | -118.55860 | 8638 ft | 291 kts | 97° |
| 2026-05-04 22:10 | 34.01742 | -118.53433 | 8431 ft | 291 kts | 97° |
| 2026-05-04 22:11 | 34.01520 | -118.51047 | 8071 ft | 279 kts | 97° |
| 2026-05-04 22:11 | 34.01311 | -118.48804 | 7727 ft | 260 kts | 97° |
| 2026-05-04 22:11 | 34.01112 | -118.46697 | 7573 ft | 247 kts | 97° |
| 2026-05-04 22:11 | 34.01101 | -118.44656 | 7505 ft | 244 kts | 80° |
| 2026-05-04 22:12 | 34.01452 | -118.42646 | 7512 ft | 247 kts | 77° |
| 2026-05-04 22:12 | 34.01841 | -118.40622 | 7496 ft | 247 kts | 77° |
| 2026-05-04 22:12 | 34.02214 | -118.38601 | 7285 ft | 247 kts | 77° |
| 2026-05-04 22:12 | 34.02570 | -118.36587 | 6925 ft | 245 kts | 78° |
| 2026-05-04 22:13 | 34.02887 | -118.34587 | 6534 ft | 244 kts | 82° |
| 2026-05-04 22:13 | 34.03092 | -118.32587 | 6179 ft | 242 kts | 83° |
| 2026-05-04 22:13 | 34.03283 | -118.30611 | 6040 ft | 232 kts | 83° |
| 2026-05-04 22:13 | 34.03468 | -118.28674 | 6027 ft | 236 kts | 83° |
| 2026-05-04 22:14 | 34.03661 | -118.26675 | 6024 ft | 244 kts | 83° |
| 2026-05-04 22:14 | 34.03846 | -118.24637 | 6001 ft | 243 kts | 88° |
| 2026-05-04 22:14 | 34.03547 | -118.22672 | 5996 ft | 238 kts | 120° |
| 2026-05-04 22:14 | 34.02463 | -118.21222 | 6000 ft | 233 kts | 153° |
| 2026-05-04 22:15 | 34.00978 | -118.20567 | 5994 ft | 231 kts | 169° |
| 2026-05-04 22:15 | 33.99390 | -118.20169 | 5743 ft | 234 kts | 172° |
| 2026-05-04 22:15 | 33.97775 | -118.19803 | 5091 ft | 239 kts | 172° |
| 2026-05-04 22:15 | 33.96126 | -118.19581 | 4307 ft | 237 kts | 189° |
| 2026-05-04 22:16 | 33.94694 | -118.20264 | 3963 ft | 215 kts | 225° |
| 2026-05-04 22:16 | 33.93888 | -118.21780 | 3817 ft | 219 kts | 257° |
| 2026-05-04 22:16 | 33.93881 | -118.23591 | 3534 ft | 218 kts | 281° |
| 2026-05-04 22:16 | 33.94263 | -118.25364 | 3021 ft | 219 kts | 285° |
| 2026-05-04 22:17 | 33.94652 | -118.27101 | 2478 ft | 211 kts | 276° |
| 2026-05-04 22:17 | 33.94639 | -118.28844 | 1959 ft | 205 kts | 267° |
| 2026-05-04 22:17 | 33.94538 | -118.30487 | 1677 ft | 188 kts | 264° |
| 2026-05-04 22:17 | 33.94386 | -118.31998 | 1660 ft | 185 kts | 264° |
| 2026-05-04 22:18 | 33.94233 | -118.33457 | 1615 ft | 167 kts | 263° |
| 2026-05-04 22:18 | 33.94099 | -118.34890 | 1042 ft | 171 kts | 264° |
| 2026-05-04 22:18 | 33.93942 | -118.36265 | 630 ft | 161 kts | 261° |
| 2026-05-04 22:18 | 33.93816 | -118.37514 | 308 ft | 143 kts | 263° |
| 2026-05-04 22:19 | 33.93700 | -118.38616 | 126 ft | 126 kts | 263° |
| 2026-05-04 22:19 | 33.93602 | -118.39541 | 100 ft | 98 kts | 263° |
| 2026-05-04 22:19 | 33.93539 | -118.40174 | 99 ft | 55 kts | 264° |
| 2026-05-04 22:19 | 33.93546 | -118.40473 | 100 ft | 22 kts | 282° |
| 2026-05-04 22:20 | 33.93575 | -118.40582 | 100 ft | 14 kts | 289° |
| 2026-05-04 22:20 | 33.93597 | -118.40694 | 99 ft | 14 kts | 271° |
| 2026-05-04 22:20 | 33.93596 | -118.40811 | 98 ft | 14 kts | 282° |
| 2026-05-04 22:20 | 33.93604 | -118.40844 | 99 ft | 0 kts | 289° |
| 2026-05-04 22:21 | 33.93605 | -118.40846 | 98 ft | 0 kts | 289° |
| 2026-05-04 22:21 | 33.93606 | -118.40850 | 99 ft | 1 kts | 289° |
| 2026-05-04 22:21 | 33.93618 | -118.40875 | 100 ft | 8 kts | 309° |
| 2026-05-04 22:21 | 33.93674 | -118.40897 | 99 ft | 9 kts | 349° |
| 2026-05-04 22:22 | 33.93739 | -118.40908 | 99 ft | 10 kts | 356° |
| 2026-05-04 22:22 | 33.93788 | -118.40856 | 98 ft | 10 kts | 70° |
| 2026-05-04 22:22 | 33.93800 | -118.40770 | 99 ft | 11 kts | 82° |
| 2026-05-04 22:22 | 33.93810 | -118.40679 | 99 ft | 11 kts | 82° |
| 2026-05-04 22:23 | 33.93821 | -118.40582 | 101 ft | 12 kts | 82° |
| 2026-05-04 22:23 | 33.93831 | -118.40482 | 100 ft | 12 kts | 84° |
| 2026-05-04 22:23 | 33.93839 | -118.40383 | 102 ft | 12 kts | 84° |
| 2026-05-04 22:23 | 33.93848 | -118.40283 | 100 ft | 12 kts | 84° |
| 2026-05-04 22:24 | 33.93858 | -118.40183 | 100 ft | 12 kts | 80° |
| 2026-05-04 22:24 | 33.93870 | -118.40082 | 101 ft | 12 kts | 82° |
| 2026-05-04 22:24 | 33.93881 | -118.39981 | 101 ft | 12 kts | 83° |
| 2026-05-04 22:24 | 33.93891 | -118.39878 | 100 ft | 13 kts | 83° |
| 2026-05-04 22:25 | 33.93903 | -118.39766 | 100 ft | 14 kts | 83° |
| 2026-05-04 22:25 | 33.93915 | -118.39646 | 99 ft | 15 kts | 83° |
| 2026-05-04 22:25 | 33.93928 | -118.39521 | 99 ft | 15 kts | 83° |
| 2026-05-04 22:25 | 33.93941 | -118.39389 | 98 ft | 17 kts | 83° |
| 2026-05-04 22:26 | 33.93956 | -118.39247 | 99 ft | 17 kts | 83° |
| 2026-05-04 22:26 | 33.93970 | -118.39103 | 97 ft | 17 kts | 83° |
| 2026-05-04 22:26 | 33.93985 | -118.38959 | 99 ft | 17 kts | 83° |
| 2026-05-04 22:26 | 33.94000 | -118.38815 | 98 ft | 17 kts | 83° |
| 2026-05-04 22:27 | 33.94014 | -118.38671 | 99 ft | 17 kts | 83° |
| 2026-05-04 22:27 | 33.94029 | -118.38527 | 100 ft | 17 kts | 83° |
| 2026-05-04 22:27 | 33.94043 | -118.38391 | 102 ft | 11 kts | 82° |
| 2026-05-04 22:27 | 33.94072 | -118.38345 | 100 ft | 8 kts | 17° |
| 2026-05-04 22:28 | 33.94136 | -118.38347 | 98 ft | 10 kts | 356° |
| 2026-05-04 22:28 | 33.94186 | -118.38385 | 98 ft | 0 kts | 314° |
| 2026-05-04 22:28 | 33.94190 | -118.38389 | 98 ft | 1 kts | 314° |